Wetterdaten: Samstag, 19.12.2020
Datum Zeit Temp. Aussen Temp. o. S. Temp +5cm Feuchte Auss Luftdruck Regen Sonnenschein Regendauer Solar Windben Empfang
19.12.2020 00:00 5,7 C 5,0 C 3,8 C 97 % 1017,5 hPa 0,0 l/m 0 min 0 min 0 W/m 0,0 km/h (0 Bft) 100,00 %
19.12.2020 00:02 5,7 C 5,0 C 3,8 C 97 % 1017,5 hPa 0,0 l/m 0 min 0 min 0 W/m 3,2 km/h (1 Bft) 100,00 %
19.12.2020 00:04 5,6 C 5,0 C 3,8 C 97 % 1017,4 hPa 0,0 l/m 0 min 0 min 0 W/m 3,2 km/h (1 Bft) 100,00 %
19.12.2020 00:08 5,6 C 5,0 C 3,8 C 97 % 1017,4 hPa 0,0 l/m 0 min 0 min 0 W/m 6,4 km/h (2 Bft) 97,85 %
19.12.2020 00:10 5,6 C 5,0 C 3,8 C 97 % 1017,4 hPa 0,0 l/m 0 min 0 min 0 W/m 3,2 km/h (1 Bft) 100,00 %
19.12.2020 00:12 5,6 C 5,0 C 3,8 C 97 % 1017,3 hPa 0,0 l/m 0 min 0 min 0 W/m 3,2 km/h (1 Bft) 100,00 %
19.12.2020 00:14 5,6 C 5,0 C 3,8 C 97 % 1017,3 hPa 0,0 l/m 0 min 0 min 0 W/m 0,0 km/h (0 Bft) 100,00 %
19.12.2020 00:16 5,6 C 5,0 C 3,8 C 97 % 1017,3 hPa 0,0 l/m 0 min 0 min 0 W/m 3,2 km/h (1 Bft) 95,74 %
19.12.2020 00:18 5,6 C 5,0 C 3,8 C 97 % 1017,3 hPa 0,0 l/m 0 min 0 min 0 W/m 0,0 km/h (0 Bft) 100,00 %
19.12.2020 00:20 5,6 C 5,0 C 3,8 C 97 % 1017,2 hPa 0,0 l/m 0 min 0 min 0 W/m 3,2 km/h (1 Bft) 97,87 %
19.12.2020 00:22 5,6 C 5,0 C 3,8 C 97 % 1017,2 hPa 0,0 l/m 0 min 0 min 0 W/m 0,0 km/h (0 Bft) 100,00 %
19.12.2020 00:24 5,6 C 5,0 C 3,8 C 97 % 1017,2 hPa 0,0 l/m 0 min 0 min 0 W/m 3,2 km/h (1 Bft) 100,00 %
19.12.2020 00:26 5,6 C 5,0 C 3,8 C 96 % 1017,3 hPa 0,0 l/m 0 min 0 min 0 W/m 0,0 km/h (0 Bft) 97,87 %
19.12.2020 00:28 5,6 C 5,0 C 3,8 C 97 % 1017,2 hPa 0,0 l/m 0 min 0 min 0 W/m 0,0 km/h (0 Bft) 98,28 %
19.12.2020 00:30 5,5 C 5,0 C 3,8 C 97 % 1017,2 hPa 0,0 l/m 0 min 0 min 0 W/m 0,0 km/h (0 Bft) 97,87 %
19.12.2020 00:32 5,5 C 5,0 C 3,8 C 97 % 1017,2 hPa 0,0 l/m 0 min 0 min 0 W/m 3,2 km/h (1 Bft) 95,74 %
19.12.2020 00:34 5,5 C 5,0 C 3,8 C 97 % 1017,2 hPa 0,0 l/m 0 min 0 min 0 W/m 6,4 km/h (2 Bft) 97,87 %
19.12.2020 00:36 5,5 C 5,0 C 3,8 C 97 % 1017,1 hPa 0,0 l/m 0 min 0 min 0 W/m 3,2 km/h (1 Bft) 95,74 %
19.12.2020 00:38 5,5 C 5,0 C 3,8 C 97 % 1017,2 hPa 0,0 l/m 0 min 0 min 0 W/m 0,0 km/h (0 Bft) 97,83 %
19.12.2020 00:40 5,5 C 5,0 C 3,8 C 97 % 1017,1 hPa 0,0 l/m 0 min 0 min 0 W/m 0,0 km/h (0 Bft) 97,87 %
19.12.2020 00:42 5,5 C 5,0 C 3,8 C 97 % 1017,1 hPa 0,0 l/m 0 min 0 min 0 W/m 3,2 km/h (1 Bft) 97,14 %
19.12.2020 00:44 5,5 C 5,0 C 3,8 C 97 % 1017,0 hPa 0,0 l/m 0 min 0 min 0 W/m 3,2 km/h (1 Bft) 97,87 %
19.12.2020 00:46 5,5 C 5,0 C 3,8 C 97 % 1017,0 hPa 0,0 l/m 0 min 0 min 0 W/m 3,2 km/h (1 Bft) 95,74 %
19.12.2020 00:48 5,6 C 5,0 C 3,8 C 97 % 1017,0 hPa 0,0 l/m 0 min 0 min 0 W/m 3,2 km/h (1 Bft) 97,87 %
19.12.2020 00:50 5,6 C 5,0 C 3,8 C 97 % 1017,0 hPa 0,0 l/m 0 min 0 min 0 W/m 3,2 km/h (1 Bft) 97,87 %
19.12.2020 00:52 5,6 C 5,0 C 3,8 C 97 % 1017,0 hPa 0,0 l/m 0 min 0 min 0 W/m 3,2 km/h (1 Bft) 98,28 %
19.12.2020 00:54 5,6 C 5,0 C 3,8 C 97 % 1017,0 hPa 0,0 l/m 0 min 0 min 0 W/m 0,0 km/h (0 Bft) 97,14 %
19.12.2020 00:56 5,6 C 5,0 C 3,8 C 97 % 1017,0 hPa 0,0 l/m 0 min 0 min 0 W/m 6,4 km/h (2 Bft) 97,87 %
19.12.2020 00:58 5,6 C 5,0 C 3,8 C 97 % 1016,9 hPa 0,0 l/m 0 min 0 min 0 W/m 3,2 km/h (1 Bft) 94,92 %
19.12.2020 01:00 5,6 C 5,0 C 3,8 C 97 % 1016,9 hPa 0,0 l/m 0 min 0 min 0 W/m 3,2 km/h (1 Bft) 97,14 %
19.12.2020 01:02 5,6 C 5,0 C 3,8 C 97 % 1016,9 hPa 0,0 l/m 0 min 0 min 0 W/m 0,0 km/h (0 Bft) 95,74 %
19.12.2020 01:04 5,6 C 5,0 C 3,8 C 97 % 1016,9 hPa 0,0 l/m 0 min 0 min 0 W/m 0,0 km/h (0 Bft) 97,83 %
19.12.2020 01:06 5,6 C 5,0 C 3,8 C 97 % 1016,9 hPa 0,0 l/m 0 min 0 min 0 W/m 3,2 km/h (1 Bft) 97,87 %
19.12.2020 01:08 5,6 C 5,0 C 3,8 C 97 % 1016,9 hPa 0,0 l/m 0 min 0 min 0 W/m 3,2 km/h (1 Bft) 98,31 %
19.12.2020 01:10 5,7 C 5,0 C 3,8 C 97 % 1016,9 hPa 0,0 l/m 0 min 0 min 0 W/m 16,1 km/h (3 Bft) 97,14 %
19.12.2020 01:12 5,7 C 5,6 C 3,8 C 97 % 1016,9 hPa 0,0 l/m 0 min 0 min 0 W/m 3,2 km/h (1 Bft) 93,62 %
19.12.2020 01:14 5,8 C 5,6 C 3,8 C 97 % 1016,9 hPa 0,0 l/m 0 min 0 min 0 W/m 0,0 km/h (0 Bft) 100,00 %
19.12.2020 01:16 5,8 C 5,6 C 3,8 C 97 % 1016,9 hPa 0,0 l/m 0 min 0 min 0 W/m 0,0 km/h (0 Bft) 97,96 %
19.12.2020 01:18 5,8 C 5,6 C 3,8 C 97 % 1016,8 hPa 0,0 l/m 0 min 0 min 0 W/m 3,2 km/h (1 Bft) 98,00 %
19.12.2020 01:20 5,8 C 5,6 C 3,8 C 97 % 1016,8 hPa 0,0 l/m 0 min 0 min 0 W/m 3,2 km/h (1 Bft) 95,74 %
19.12.2020 01:22 5,8 C 5,6 C 3,8 C 97 % 1016,8 hPa 0,0 l/m 0 min 0 min 0 W/m 0,0 km/h (0 Bft) 97,87 %
19.12.2020 01:24 5,8 C 5,6 C 3,8 C 97 % 1016,8 hPa 0,0 l/m 0 min 0 min 0 W/m 0,0 km/h (0 Bft) 97,83 %
19.12.2020 01:26 5,8 C 5,6 C 3,8 C 97 % 1016,8 hPa 0,0 l/m 0 min 0 min 0 W/m 3,2 km/h (1 Bft) 97,62 %
19.12.2020 01:28 5,9 C 5,6 C 3,8 C 97 % 1016,7 hPa 0,0 l/m 0 min 0 min 0 W/m 3,2 km/h (1 Bft) 97,96 %
19.12.2020 01:30 5,9 C 5,6 C 3,8 C 97 % 1016,7 hPa 0,0 l/m 0 min 0 min 0 W/m 6,4 km/h (2 Bft) 97,87 %
19.12.2020 01:32 5,9 C 5,6 C 3,8 C 97 % 1016,6 hPa 0,0 l/m 0 min 0 min 0 W/m 0,0 km/h (0 Bft) 97,92 %
19.12.2020 01:34 5,9 C 5,6 C 3,8 C 97 % 1016,6 hPa 0,0 l/m 0 min 0 min 0 W/m 0,0 km/h (0 Bft) 97,87 %
19.12.2020 01:36 5,9 C 5,6 C 3,8 C 97 % 1016,6 hPa 0,0 l/m 0 min 0 min 0 W/m 6,4 km/h (2 Bft) 97,87 %
19.12.2020 01:38 5,9 C 5,6 C 3,8 C 97 % 1016,6 hPa 0,0 l/m 0 min 0 min 0 W/m 0,0 km/h (0 Bft) 95,74 %
19.12.2020 01:40 5,9 C 5,6 C 3,8 C 97 % 1016,6 hPa 0,0 l/m 0 min 0 min 0 W/m 0,0 km/h (0 Bft) 97,83 %
19.12.2020 01:42 5,9 C 5,6 C 3,8 C 97 % 1016,6 hPa 0,0 l/m 0 min 0 min 0 W/m 0,0 km/h (0 Bft) 95,74 %
19.12.2020 01:44 5,9 C 5,6 C 3,8 C 97 % 1016,5 hPa 0,0 l/m 0 min 0 min 0 W/m 3,2 km/h (1 Bft) 97,87 %
19.12.2020 01:46 5,9 C 5,0 C 3,8 C 97 % 1016,5 hPa 0,0 l/m 0 min 0 min 0 W/m 0,0 km/h (0 Bft) 97,87 %
19.12.2020 01:48 5,9 C 5,6 C 3,8 C 97 % 1016,4 hPa 0,0 l/m 0 min 0 min 0 W/m 3,2 km/h (1 Bft) 97,87 %
19.12.2020 01:50 5,9 C 5,6 C 3,8 C 97 % 1016,4 hPa 0,0 l/m 0 min 0 min 0 W/m 3,2 km/h (1 Bft) 97,87 %
19.12.2020 01:52 5,8 C 5,0 C 3,8 C 97 % 1016,4 hPa 0,0 l/m 0 min 0 min 0 W/m 3,2 km/h (1 Bft) 97,83 %
19.12.2020 01:54 5,8 C 5,0 C 3,8 C 97 % 1016,4 hPa 0,0 l/m 0 min 0 min 0 W/m 3,2 km/h (1 Bft) 97,87 %
19.12.2020 01:56 5,8 C 5,6 C 3,8 C 97 % 1016,4 hPa 0,0 l/m 0 min 0 min 0 W/m 3,2 km/h (1 Bft) 95,74 %
19.12.2020 01:58 5,9 C 5,6 C 3,8 C 97 % 1016,4 hPa 0,0 l/m 0 min 0 min 0 W/m 3,2 km/h (1 Bft) 97,87 %
19.12.2020 02:00 5,9 C 5,6 C 3,8 C 97 % 1016,3 hPa 0,0 l/m 0 min 0 min 0 W/m 3,2 km/h (1 Bft) 97,87 %
19.12.2020 02:02 5,9 C 5,6 C 3,8 C 97 % 1016,3 hPa 0,0 l/m 0 min 0 min 0 W/m 3,2 km/h (1 Bft) 100,00 %
19.12.2020 02:04 5,9 C 5,6 C 3,8 C 97 % 1016,3 hPa 0,0 l/m 0 min 0 min 0 W/m 3,2 km/h (1 Bft) 100,00 %
19.12.2020 02:06 5,9 C 5,6 C 3,8 C 97 % 1016,3 hPa 0,0 l/m 0 min 0 min 0 W/m 3,2 km/h (1 Bft) 100,00 %
19.12.2020 02:08 5,9 C 5,6 C 3,8 C 97 % 1016,3 hPa 0,0 l/m 0 min 0 min 0 W/m 6,4 km/h (2 Bft) 100,00 %
19.12.2020 02:10 5,9 C 5,6 C 4,4 C 97 % 1016,3 hPa 0,0 l/m 0 min 0 min 0 W/m 3,2 km/h (1 Bft) 97,87 %
19.12.2020 02:12 5,9 C 5,6 C 4,4 C 97 % 1016,2 hPa 0,0 l/m 0 min 0 min 0 W/m 3,2 km/h (1 Bft) 100,00 %
19.12.2020 02:14 6,0 C 5,6 C 3,8 C 97 % 1016,2 hPa 0,0 l/m 0 min 0 min 0 W/m 0,0 km/h (0 Bft) 100,00 %
19.12.2020 02:16 5,9 C 5,6 C 4,4 C 97 % 1016,2 hPa 0,0 l/m 0 min 0 min 0 W/m 6,4 km/h (2 Bft) 100,00 %
19.12.2020 02:18 5,9 C 5,6 C 4,4 C 97 % 1016,1 hPa 0,0 l/m 0 min 0 min 0 W/m 3,2 km/h (1 Bft) 100,00 %
19.12.2020 02:20 6,0 C 5,6 C 4,4 C 97 % 1016,1 hPa 0,0 l/m 0 min 0 min 0 W/m 0,0 km/h (0 Bft) 100,00 %
19.12.2020 02:22 6,0 C 5,6 C 4,4 C 97 % 1016,1 hPa 0,0 l/m 0 min 0 min 0 W/m 6,4 km/h (2 Bft) 100,00 %
19.12.2020 02:24 6,0 C 5,6 C 4,4 C 97 % 1016,1 hPa 0,0 l/m 0 min 0 min 0 W/m 3,2 km/h (1 Bft) 100,00 %
19.12.2020 02:26 6,0 C 5,6 C 4,4 C 97 % 1016,1 hPa 0,0 l/m 0 min 0 min 0 W/m 6,4 km/h (2 Bft) 97,83 %
19.12.2020 02:28 6,0 C 5,6 C 4,4 C 97 % 1016,1 hPa 0,0 l/m 0 min 0 min 0 W/m 3,2 km/h (1 Bft) 100,00 %
19.12.2020 02:30 6,0 C 5,6 C 4,4 C 97 % 1016,1 hPa 0,0 l/m 0 min 0 min 0 W/m 3,2 km/h (1 Bft) 100,00 %
19.12.2020 02:32 6,0 C 5,6 C 4,4 C 97 % 1016,0 hPa 0,0 l/m 0 min 0 min 0 W/m 3,2 km/h (1 Bft) 100,00 %
19.12.2020 02:34 6,0 C 5,6 C 4,4 C 97 % 1016,0 hPa 0,0 l/m 0 min 0 min 0 W/m 0,0 km/h (0 Bft) 97,87 %
19.12.2020 02:36 6,0 C 5,6 C 4,4 C 97 % 1016,0 hPa 0,0 l/m 0 min 0 min 0 W/m 0,0 km/h (0 Bft) 100,00 %
19.12.2020 02:38 6,0 C 5,6 C 4,4 C 97 % 1016,0 hPa 0,0 l/m 0 min 0 min 0 W/m 3,2 km/h (1 Bft) 97,56 %
19.12.2020 02:40 6,0 C 5,6 C 4,4 C 97 % 1016,0 hPa 0,0 l/m 0 min 0 min 0 W/m 3,2 km/h (1 Bft) 98,00 %
19.12.2020 02:42 6,0 C 5,6 C 4,4 C 97 % 1016,0 hPa 0,0 l/m 0 min 0 min 0 W/m 0,0 km/h (0 Bft) 100,00 %
19.12.2020 02:44 6,0 C 5,6 C 4,4 C 97 % 1016,1 hPa 0,0 l/m 0 min 0 min 0 W/m 0,0 km/h (0 Bft) 100,00 %
19.12.2020 02:46 6,0 C 5,6 C 3,8 C 97 % 1016,1 hPa 0,0 l/m 0 min 0 min 0 W/m 0,0 km/h (0 Bft) 100,00 %
19.12.2020 02:48 6,0 C 5,6 C 3,8 C 97 % 1016,1 hPa 0,0 l/m 0 min 0 min 0 W/m 0,0 km/h (0 Bft) 100,00 %
19.12.2020 02:50 6,0 C 5,6 C 3,8 C 97 % 1016,0 hPa 0,0 l/m 0 min 0 min 0 W/m 6,4 km/h (2 Bft) 100,00 %
19.12.2020 02:52 6,0 C 5,6 C 3,8 C 97 % 1015,9 hPa 0,0 l/m 0 min 0 min 0 W/m 3,2 km/h (1 Bft) 97,87 %
19.12.2020 02:54 6,0 C 5,0 C 3,8 C 97 % 1016,0 hPa 0,0 l/m 0 min 0 min 0 W/m 0,0 km/h (0 Bft) 97,87 %
19.12.2020 02:56 5,9 C 5,0 C 3,8 C 97 % 1016,1 hPa 0,0 l/m 0 min 0 min 0 W/m 0,0 km/h (0 Bft) 100,00 %
19.12.2020 02:58 5,9 C 5,0 C 3,8 C 97 % 1016,0 hPa 0,0 l/m 0 min 0 min 0 W/m 0,0 km/h (0 Bft) 97,83 %
19.12.2020 03:00 5,9 C 5,0 C 3,8 C 96 % 1016,0 hPa 0,0 l/m 0 min 0 min 0 W/m 0,0 km/h (0 Bft) 97,87 %
19.12.2020 03:02 5,9 C 5,0 C 3,8 C 96 % 1016,0 hPa 0,0 l/m 0 min 0 min 0 W/m 0,0 km/h (0 Bft) 97,14 %
19.12.2020 03:04 5,9 C 5,0 C 3,8 C 96 % 1016,0 hPa 0,0 l/m 0 min 0 min 0 W/m 3,2 km/h (1 Bft) 100,00 %
19.12.2020 03:06 5,9 C 5,0 C 3,8 C 96 % 1016,0 hPa 0,0 l/m 0 min 0 min 0 W/m 0,0 km/h (0 Bft) 100,00 %
19.12.2020 03:08 5,8 C 5,0 C 3,8 C 96 % 1015,9 hPa 0,0 l/m 0 min 0 min 0 W/m 0,0 km/h (0 Bft) 100,00 %
19.12.2020 03:10 5,8 C 5,0 C 3,8 C 96 % 1016,0 hPa 0,0 l/m 0 min 0 min 0 W/m 0,0 km/h (0 Bft) 100,00 %
19.12.2020 03:12 5,8 C 5,0 C 3,8 C 96 % 1016,0 hPa 0,0 l/m 0 min 0 min 0 W/m 3,2 km/h (1 Bft) 95,92 %
19.12.2020 03:14 5,8 C 5,0 C 3,8 C 96 % 1015,9 hPa 0,0 l/m 0 min 0 min 0 W/m 0,0 km/h (0 Bft) 97,96 %
19.12.2020 03:16 5,8 C 5,0 C 3,8 C 96 % 1015,9 hPa 0,0 l/m 0 min 0 min 0 W/m 6,4 km/h (2 Bft) 97,87 %
19.12.2020 03:18 5,8 C 5,0 C 3,8 C 96 % 1015,9 hPa 0,0 l/m 0 min 0 min 0 W/m 0,0 km/h (0 Bft) 94,29 %
19.12.2020 03:20 5,8 C 5,0 C 3,8 C 97 % 1015,9 hPa 0,0 l/m 0 min 0 min 0 W/m 6,4 km/h (2 Bft) 97,87 %
19.12.2020 03:22 5,8 C 5,0 C 3,8 C 97 % 1015,8 hPa 0,0 l/m 0 min 0 min 0 W/m 3,2 km/h (1 Bft) 97,87 %
19.12.2020 03:24 5,8 C 5,0 C 3,8 C 97 % 1015,9 hPa 0,0 l/m 0 min 0 min 0 W/m 3,2 km/h (1 Bft) 98,11 %
19.12.2020 03:26 5,8 C 5,6 C 3,8 C 97 % 1015,8 hPa 0,0 l/m 0 min 0 min 0 W/m 0,0 km/h (0 Bft) 97,96 %
19.12.2020 03:28 5,8 C 5,6 C 3,8 C 97 % 1015,8 hPa 0,0 l/m 0 min 0 min 0 W/m 0,0 km/h (0 Bft) 95,74 %
19.12.2020 03:30 5,8 C 5,6 C 3,8 C 97 % 1015,8 hPa 0,0 l/m 0 min 0 min 0 W/m 12,9 km/h (3 Bft) 98,00 %
19.12.2020 03:32 5,8 C 5,6 C 3,8 C 97 % 1015,8 hPa 0,0 l/m 0 min 0 min 0 W/m 6,4 km/h (2 Bft) 97,87 %
19.12.2020 03:34 5,8 C 5,6 C 3,8 C 97 % 1015,8 hPa 0,0 l/m 0 min 0 min 0 W/m 3,2 km/h (1 Bft) 97,56 %
19.12.2020 03:36 5,9 C 5,6 C 3,8 C 97 % 1015,8 hPa 0,0 l/m 0 min 0 min 0 W/m 9,7 km/h (2 Bft) 93,88 %
19.12.2020 03:38 5,9 C 5,6 C 3,8 C 97 % 1015,9 hPa 0,0 l/m 0 min 0 min 0 W/m 0,0 km/h (0 Bft) 98,00 %
19.12.2020 03:40 5,9 C 5,6 C 3,8 C 97 % 1015,9 hPa 0,0 l/m 0 min 0 min 0 W/m 0,0 km/h (0 Bft) 95,74 %
19.12.2020 03:42 5,9 C 5,6 C 3,8 C 97 % 1015,9 hPa 0,0 l/m 0 min 0 min 0 W/m 12,9 km/h (3 Bft) 100,00 %
19.12.2020 03:44 5,9 C 5,6 C 3,8 C 97 % 1015,9 hPa 0,0 l/m 0 min 0 min 0 W/m 0,0 km/h (0 Bft) 96,00 %
19.12.2020 03:46 5,9 C 5,6 C 3,8 C 97 % 1015,8 hPa 0,0 l/m 0 min 0 min 0 W/m 0,0 km/h (0 Bft) 97,96 %
19.12.2020 03:48 5,9 C 5,6 C 3,8 C 97 % 1015,8 hPa 0,0 l/m 0 min 0 min 0 W/m 0,0 km/h (0 Bft) 97,87 %
19.12.2020 03:50 5,9 C 5,6 C 4,4 C 97 % 1015,8 hPa 0,0 l/m 0 min 0 min 0 W/m 12,9 km/h (3 Bft) 97,56 %
19.12.2020 03:52 5,9 C 5,6 C 4,4 C 97 % 1015,8 hPa 0,0 l/m 0 min 0 min 0 W/m 3,2 km/h (1 Bft) 98,00 %
19.12.2020 03:54 5,9 C 5,6 C 3,8 C 97 % 1015,7 hPa 0,0 l/m 0 min 0 min 0 W/m 3,2 km/h (1 Bft) 100,00 %
19.12.2020 03:56 5,9 C 5,6 C 3,8 C 97 % 1015,7 hPa 0,0 l/m 0 min 0 min 0 W/m 6,4 km/h (2 Bft) 100,00 %
19.12.2020 03:58 5,9 C 5,6 C 3,8 C 97 % 1015,6 hPa 0,0 l/m 0 min 0 min 0 W/m 3,2 km/h (1 Bft) 100,00 %
19.12.2020 04:00 5,9 C 5,6 C 3,8 C 97 % 1015,6 hPa 0,0 l/m 0 min 0 min 0 W/m 6,4 km/h (2 Bft) 100,00 %
19.12.2020 04:02 5,9 C 5,6 C 3,8 C 97 % 1015,6 hPa 0,0 l/m 0 min 0 min 0 W/m 0,0 km/h (0 Bft) 96,77 %
19.12.2020 04:04 5,9 C 5,6 C 3,8 C 97 % 1015,6 hPa 0,0 l/m 0 min 0 min 0 W/m 12,9 km/h (3 Bft) 97,87 %
19.12.2020 04:06 5,9 C 5,6 C 4,4 C 97 % 1015,5 hPa 0,0 l/m 0 min 0 min 0 W/m 6,4 km/h (2 Bft) 97,87 %
19.12.2020 04:08 5,9 C 5,6 C 4,4 C 97 % 1015,5 hPa 0,0 l/m 0 min 0 min 0 W/m 0,0 km/h (0 Bft) 98,00 %
19.12.2020 04:10 5,9 C 5,6 C 4,4 C 97 % 1015,5 hPa 0,0 l/m 0 min 0 min 0 W/m 3,2 km/h (1 Bft) 97,87 %
19.12.2020 04:12 5,9 C 5,6 C 4,4 C 97 % 1015,4 hPa 0,0 l/m 0 min 0 min 0 W/m 3,2 km/h (1 Bft) 97,96 %
19.12.2020 04:14 6,0 C 5,6 C 4,4 C 97 % 1015,4 hPa 0,0 l/m 0 min 0 min 0 W/m 3,2 km/h (1 Bft) 95,74 %
19.12.2020 04:16 6,0 C 5,6 C 4,4 C 97 % 1015,4 hPa 0,0 l/m 0 min 0 min 0 W/m 3,2 km/h (1 Bft) 97,56 %
19.12.2020 04:18 6,0 C 5,6 C 4,4 C 97 % 1015,4 hPa 0,0 l/m 0 min 0 min 0 W/m 3,2 km/h (1 Bft) 98,00 %
19.12.2020 04:20 6,0 C 5,6 C 4,4 C 97 % 1015,4 hPa 0,0 l/m 0 min 0 min 0 W/m 12,9 km/h (3 Bft) 95,92 %
19.12.2020 04:22 6,0 C 5,6 C 4,4 C 97 % 1015,4 hPa 0,0 l/m 0 min 0 min 0 W/m 3,2 km/h (1 Bft) 97,87 %
19.12.2020 04:24 6,0 C 5,6 C 4,4 C 97 % 1015,4 hPa 0,0 l/m 0 min 0 min 0 W/m 12,9 km/h (3 Bft) 97,87 %
19.12.2020 04:26 6,0 C 5,6 C 4,4 C 97 % 1015,3 hPa 0,0 l/m 0 min 0 min 0 W/m 16,1 km/h (3 Bft) 97,56 %
19.12.2020 04:28 6,0 C 5,6 C 3,8 C 97 % 1015,4 hPa 0,0 l/m 0 min 0 min 0 W/m 3,2 km/h (1 Bft) 98,00 %
19.12.2020 04:30 6,0 C 5,6 C 3,8 C 97 % 1015,4 hPa 0,0 l/m 0 min 0 min 0 W/m 6,4 km/h (2 Bft) 96,00 %
19.12.2020 04:32 6,0 C 5,6 C 3,8 C 97 % 1015,3 hPa 0,0 l/m 0 min 0 min 0 W/m 0,0 km/h (0 Bft) 97,78 %
19.12.2020 04:34 6,0 C 5,6 C 3,8 C 97 % 1015,3 hPa 0,0 l/m 0 min 0 min 0 W/m 3,2 km/h (1 Bft) 97,92 %
19.12.2020 04:36 6,0 C 5,6 C 3,8 C 97 % 1015,3 hPa 0,0 l/m 0 min 0 min 0 W/m 3,2 km/h (1 Bft) 97,14 %
19.12.2020 04:38 5,9 C 5,6 C 4,4 C 97 % 1015,3 hPa 0,0 l/m 0 min 0 min 0 W/m 3,2 km/h (1 Bft) 98,11 %
19.12.2020 04:40 6,0 C 5,6 C 4,4 C 97 % 1015,3 hPa 0,0 l/m 0 min 0 min 0 W/m 3,2 km/h (1 Bft) 97,87 %
19.12.2020 04:42 6,0 C 5,6 C 4,4 C 97 % 1015,3 hPa 0,0 l/m 0 min 0 min 0 W/m 3,2 km/h (1 Bft) 98,00 %
19.12.2020 04:44 6,0 C 5,6 C 4,4 C 97 % 1015,2 hPa 0,0 l/m 0 min 0 min 0 W/m 3,2 km/h (1 Bft) 97,87 %
19.12.2020 04:46 6,0 C 5,6 C 4,4 C 97 % 1015,2 hPa 0,0 l/m 0 min 0 min 0 W/m 6,4 km/h (2 Bft) 97,96 %
19.12.2020 04:48 6,0 C 5,6 C 4,4 C 97 % 1015,3 hPa 0,0 l/m 0 min 0 min 0 W/m 6,4 km/h (2 Bft) 100,00 %
19.12.2020 04:50 6,0 C 5,6 C 4,4 C 97 % 1015,2 hPa 0,0 l/m 0 min 0 min 0 W/m 3,2 km/h (1 Bft) 100,00 %
19.12.2020 04:52 6,0 C 5,6 C 4,4 C 97 % 1015,2 hPa 0,0 l/m 0 min 0 min 0 W/m 12,9 km/h (3 Bft) 100,00 %
19.12.2020 04:54 6,0 C 5,6 C 4,4 C 97 % 1015,3 hPa 0,0 l/m 0 min 0 min 0 W/m 3,2 km/h (1 Bft) 100,00 %
19.12.2020 04:56 6,0 C 5,6 C 4,4 C 97 % 1015,2 hPa 0,0 l/m 0 min 0 min 0 W/m 0,0 km/h (0 Bft) 100,00 %
19.12.2020 04:58 6,0 C 5,6 C 4,4 C 97 % 1015,2 hPa 0,0 l/m 0 min 0 min 0 W/m 3,2 km/h (1 Bft) 100,00 %
19.12.2020 05:00 6,0 C 5,6 C 3,8 C 97 % 1015,3 hPa 0,0 l/m 0 min 0 min 0 W/m 3,2 km/h (1 Bft) 100,00 %
19.12.2020 05:02 6,0 C 5,6 C 3,8 C 97 % 1015,3 hPa 0,0 l/m 0 min 0 min 0 W/m 3,2 km/h (1 Bft) 100,00 %
19.12.2020 05:04 6,0 C 5,6 C 3,8 C 97 % 1015,2 hPa 0,0 l/m 0 min 0 min 0 W/m 3,2 km/h (1 Bft) 100,00 %
19.12.2020 05:06 6,0 C 5,6 C 3,8 C 97 % 1015,3 hPa 0,0 l/m 0 min 0 min 0 W/m 3,2 km/h (1 Bft) 97,56 %
19.12.2020 05:08 6,0 C 5,0 C 3,8 C 97 % 1015,2 hPa 0,0 l/m 0 min 0 min 0 W/m 0,0 km/h (0 Bft) 100,00 %
19.12.2020 05:10 6,0 C 5,0 C 3,8 C 97 % 1015,2 hPa 0,0 l/m 0 min 0 min 0 W/m 0,0 km/h (0 Bft) 100,00 %
19.12.2020 05:12 5,9 C 5,0 C 3,8 C 97 % 1015,2 hPa 0,0 l/m 0 min 0 min 0 W/m 6,4 km/h (2 Bft) 100,00 %
19.12.2020 05:14 5,9 C 5,0 C 3,8 C 97 % 1015,2 hPa 0,0 l/m 0 min 0 min 0 W/m 3,2 km/h (1 Bft) 100,00 %
19.12.2020 05:16 5,9 C 5,0 C 3,8 C 97 % 1015,2 hPa 0,0 l/m 0 min 0 min 0 W/m 0,0 km/h (0 Bft) 100,00 %
19.12.2020 05:18 5,9 C 5,0 C 3,8 C 97 % 1015,2 hPa 0,0 l/m 0 min 0 min 0 W/m 3,2 km/h (1 Bft) 100,00 %
19.12.2020 05:20 5,9 C 5,0 C 3,8 C 96 % 1015,1 hPa 0,0 l/m 0 min 0 min 0 W/m 0,0 km/h (0 Bft) 95,92 %
19.12.2020 05:22 5,9 C 5,0 C 3,8 C 96 % 1015,1 hPa 0,0 l/m 0 min 0 min 0 W/m 3,2 km/h (1 Bft) 100,00 %
19.12.2020 05:24 5,9 C 5,0 C 3,8 C 96 % 1015,1 hPa 0,0 l/m 0 min 0 min 0 W/m 0,0 km/h (0 Bft) 100,00 %
19.12.2020 05:26 5,8 C 5,0 C 3,8 C 96 % 1015,0 hPa 0,0 l/m 0 min 0 min 0 W/m 3,2 km/h (1 Bft) 50,00 %
19.12.2020 05:28 5,8 C 5,0 C 3,8 C 97 % 1015,0 hPa 0,0 l/m 0 min 0 min 0 W/m 0,0 km/h (0 Bft) 98,00 %
19.12.2020 05:30 5,8 C 5,0 C 3,8 C 97 % 1015,0 hPa 0,0 l/m 0 min 0 min 0 W/m 6,4 km/h (2 Bft) 97,83 %
19.12.2020 05:32 5,8 C 5,0 C 3,8 C 97 % 1015,0 hPa 0,0 l/m 0 min 0 min 0 W/m 3,2 km/h (1 Bft) 97,87 %
19.12.2020 05:34 5,8 C 5,0 C 3,8 C 97 % 1014,9 hPa 0,0 l/m 0 min 0 min 0 W/m 0,0 km/h (0 Bft) 97,14 %
19.12.2020 05:36 5,8 C 5,0 C 3,8 C 97 % 1015,0 hPa 0,0 l/m 0 min 0 min 0 W/m 12,9 km/h (3 Bft) 98,11 %
19.12.2020 05:38 5,8 C 5,0 C 3,8 C 97 % 1014,9 hPa 0,0 l/m 0 min 0 min 0 W/m 19,3 km/h (3 Bft) 95,74 %
19.12.2020 05:40 5,8 C 5,0 C 3,8 C 97 % 1014,9 hPa 0,0 l/m 0 min 0 min 0 W/m 16,1 km/h (3 Bft) 97,87 %
19.12.2020 05:42 5,8 C 5,0 C 3,8 C 97 % 1014,9 hPa 0,0 l/m 0 min 0 min 0 W/m 16,1 km/h (3 Bft) 97,87 %
19.12.2020 05:44 5,8 C 5,6 C 3,8 C 97 % 1014,9 hPa 0,0 l/m 0 min 0 min 0 W/m 3,2 km/h (1 Bft) 97,96 %
19.12.2020 05:46 5,8 C 5,6 C 3,8 C 97 % 1014,9 hPa 0,0 l/m 0 min 0 min 0 W/m 12,9 km/h (3 Bft) 98,00 %
19.12.2020 05:48 5,8 C 5,6 C 3,8 C 97 % 1014,9 hPa 0,0 l/m 0 min 0 min 0 W/m 3,2 km/h (1 Bft) 95,74 %
19.12.2020 05:50 5,8 C 5,0 C 3,8 C 97 % 1014,8 hPa 0,0 l/m 0 min 0 min 0 W/m 6,4 km/h (2 Bft) 92,68 %
19.12.2020 05:52 5,8 C 5,0 C 3,8 C 97 % 1014,8 hPa 0,0 l/m 0 min 0 min 0 W/m 12,9 km/h (3 Bft) 96,00 %
19.12.2020 05:54 5,8 C 5,0 C 3,8 C 97 % 1014,8 hPa 0,0 l/m 0 min 0 min 0 W/m 3,2 km/h (1 Bft) 91,49 %
19.12.2020 05:56 5,8 C 5,0 C 3,8 C 97 % 1014,8 hPa 0,0 l/m 0 min 0 min 0 W/m 3,2 km/h (1 Bft) 93,88 %
19.12.2020 05:58 5,8 C 5,0 C 3,8 C 97 % 1014,8 hPa 0,0 l/m 0 min 0 min 0 W/m 6,4 km/h (2 Bft) 95,74 %
19.12.2020 06:00 5,8 C 5,0 C 3,8 C 97 % 1014,8 hPa 0,0 l/m 0 min 0 min 0 W/m 3,2 km/h (1 Bft) 95,74 %
19.12.2020 06:02 5,8 C 5,0 C 3,8 C 97 % 1014,8 hPa 0,0 l/m 0 min 0 min 0 W/m 12,9 km/h (3 Bft) 94,29 %
19.12.2020 06:04 5,8 C 5,0 C 3,8 C 97 % 1014,8 hPa 0,0 l/m 0 min 0 min 0 W/m 12,9 km/h (3 Bft) 94,34 %
19.12.2020 06:08 5,8 C 5,0 C 3,8 C 97 % 1014,7 hPa 0,0 l/m 0 min 0 min 0 W/m 3,2 km/h (1 Bft) 95,83 %
19.12.2020 06:10 5,7 C 5,0 C 3,8 C 97 % 1014,7 hPa 0,0 l/m 0 min 0 min 0 W/m 3,2 km/h (1 Bft) 92,00 %
19.12.2020 06:12 5,7 C 5,0 C 3,8 C 97 % 1014,7 hPa 0,0 l/m 0 min 0 min 0 W/m 6,4 km/h (2 Bft) 95,74 %
19.12.2020 06:14 5,7 C 5,0 C 3,8 C 97 % 1014,6 hPa 0,0 l/m 0 min 0 min 0 W/m 3,2 km/h (1 Bft) 95,12 %
19.12.2020 06:16 5,7 C 5,0 C 3,8 C 97 % 1014,7 hPa 0,0 l/m 0 min 0 min 0 W/m 3,2 km/h (1 Bft) 96,00 %
19.12.2020 06:18 5,7 C 5,0 C 3,8 C 97 % 1014,6 hPa 0,0 l/m 0 min 0 min 0 W/m 6,4 km/h (2 Bft) 95,65 %
19.12.2020 06:20 5,6 C 5,0 C 3,8 C 97 % 1014,6 hPa 0,0 l/m 0 min 0 min 0 W/m 3,2 km/h (1 Bft) 96,00 %
19.12.2020 06:22 5,6 C 5,0 C 3,8 C 97 % 1014,6 hPa 0,0 l/m 0 min 0 min 0 W/m 6,4 km/h (2 Bft) 95,74 %
19.12.2020 06:24 5,6 C 5,0 C 3,8 C 97 % 1014,6 hPa 0,0 l/m 0 min 0 min 0 W/m 0,0 km/h (0 Bft) 95,12 %
19.12.2020 06:26 5,6 C 5,0 C 3,8 C 97 % 1014,6 hPa 0,0 l/m 0 min 0 min 0 W/m 3,2 km/h (1 Bft) 93,62 %
19.12.2020 06:28 5,6 C 5,0 C 3,8 C 97 % 1014,5 hPa 0,0 l/m 0 min 0 min 0 W/m 0,0 km/h (0 Bft) 93,62 %
19.12.2020 06:30 5,6 C 5,0 C 3,8 C 97 % 1014,5 hPa 0,0 l/m 0 min 0 min 0 W/m 6,4 km/h (2 Bft) 93,48 %
19.12.2020 06:32 5,6 C 5,0 C 3,8 C 97 % 1014,5 hPa 0,0 l/m 0 min 0 min 0 W/m 3,2 km/h (1 Bft) 95,74 %
19.12.2020 06:34 5,6 C 5,0 C 3,8 C 97 % 1014,5 hPa 0,0 l/m 0 min 0 min 0 W/m 3,2 km/h (1 Bft) 95,12 %
19.12.2020 06:36 5,7 C 5,0 C 3,8 C 97 % 1014,5 hPa 0,0 l/m 0 min 0 min 0 W/m 3,2 km/h (1 Bft) 97,87 %
19.12.2020 06:38 5,7 C 5,0 C 3,8 C 97 % 1014,6 hPa 0,0 l/m 0 min 0 min 0 W/m 3,2 km/h (1 Bft) 97,87 %
19.12.2020 06:40 5,7 C 5,0 C 3,8 C 97 % 1014,6 hPa 0,0 l/m 0 min 0 min 0 W/m 3,2 km/h (1 Bft) 97,87 %
19.12.2020 06:42 5,7 C 5,0 C 3,8 C 97 % 1014,6 hPa 0,0 l/m 0 min 0 min 0 W/m 6,4 km/h (2 Bft) 98,15 %
19.12.2020 06:44 5,7 C 5,0 C 3,8 C 97 % 1014,5 hPa 0,0 l/m 0 min 0 min 0 W/m 3,2 km/h (1 Bft) 97,87 %
19.12.2020 06:46 5,7 C 5,0 C 3,8 C 97 % 1014,5 hPa 0,0 l/m 0 min 0 min 0 W/m 12,9 km/h (3 Bft) 97,87 %
19.12.2020 06:48 5,8 C 5,0 C 3,8 C 97 % 1014,5 hPa 0,0 l/m 0 min 0 min 0 W/m 3,2 km/h (1 Bft) 95,74 %
19.12.2020 06:50 5,8 C 5,0 C 3,8 C 97 % 1014,5 hPa 0,0 l/m 0 min 0 min 0 W/m 0,0 km/h (0 Bft) 94,00 %
19.12.2020 06:52 5,8 C 5,0 C 3,8 C 97 % 1014,4 hPa 0,0 l/m 0 min 0 min 0 W/m 3,2 km/h (1 Bft) 95,65 %
19.12.2020 06:54 5,8 C 5,0 C 3,8 C 97 % 1014,6 hPa 0,0 l/m 0 min 0 min 0 W/m 3,2 km/h (1 Bft) 95,83 %
19.12.2020 06:56 5,8 C 5,0 C 3,8 C 97 % 1014,6 hPa 0,0 l/m 0 min 0 min 0 W/m 3,2 km/h (1 Bft) 91,43 %
19.12.2020 06:58 5,8 C 5,0 C 3,8 C 97 % 1014,6 hPa 0,0 l/m 0 min 0 min 0 W/m 3,2 km/h (1 Bft) 96,36 %
19.12.2020 07:00 5,8 C 5,0 C 3,8 C 97 % 1014,6 hPa 0,0 l/m 0 min 0 min 0 W/m 3,2 km/h (1 Bft) 94,00 %
19.12.2020 07:02 5,8 C 5,0 C 3,8 C 97 % 1014,6 hPa 0,0 l/m 0 min 0 min 0 W/m 0,0 km/h (0 Bft) 95,74 %
19.12.2020 07:04 5,8 C 5,0 C 3,8 C 97 % 1014,6 hPa 0,0 l/m 0 min 0 min 0 W/m 3,2 km/h (1 Bft) 95,74 %
19.12.2020 07:06 5,8 C 5,0 C 3,8 C 97 % 1014,6 hPa 0,0 l/m 0 min 0 min 0 W/m 6,4 km/h (2 Bft) 97,14 %
19.12.2020 07:08 5,8 C 5,0 C 3,8 C 97 % 1014,5 hPa 0,0 l/m 0 min 0 min 0 W/m 3,2 km/h (1 Bft) 92,73 %
19.12.2020 07:10 5,8 C 5,0 C 3,8 C 97 % 1014,5 hPa 0,0 l/m 0 min 0 min 0 W/m 12,9 km/h (3 Bft) 95,74 %
19.12.2020 07:12 5,8 C 5,0 C 3,8 C 97 % 1014,5 hPa 0,0 l/m 0 min 0 min 0 W/m 3,2 km/h (1 Bft) 96,00 %
19.12.2020 07:14 5,8 C 5,0 C 3,8 C 97 % 1014,5 hPa 0,0 l/m 0 min 0 min 0 W/m 6,4 km/h (2 Bft) 95,74 %
19.12.2020 07:16 5,8 C 5,0 C 3,8 C 97 % 1014,4 hPa 0,0 l/m 0 min 0 min 0 W/m 19,3 km/h (3 Bft) 93,62 %
19.12.2020 07:18 5,8 C 5,0 C 3,8 C 97 % 1014,4 hPa 0,0 l/m 0 min 0 min 0 W/m 9,7 km/h (2 Bft) 95,74 %
19.12.2020 07:20 5,8 C 5,0 C 3,8 C 97 % 1014,4 hPa 0,0 l/m 0 min 0 min 0 W/m 6,4 km/h (2 Bft) 95,74 %
19.12.2020 07:22 5,8 C 5,0 C 3,8 C 97 % 1014,3 hPa 0,0 l/m 0 min 0 min 0 W/m 3,2 km/h (1 Bft) 95,12 %
19.12.2020 07:24 5,8 C 5,0 C 3,8 C 97 % 1014,3 hPa 0,0 l/m 0 min 0 min 0 W/m 0,0 km/h (0 Bft) 96,00 %
19.12.2020 07:26 5,8 C 5,0 C 3,8 C 97 % 1014,2 hPa 0,0 l/m 0 min 0 min 0 W/m 3,2 km/h (1 Bft) 93,62 %
19.12.2020 07:28 5,8 C 5,0 C 3,8 C 97 % 1014,3 hPa 0,0 l/m 0 min 0 min 0 W/m 3,2 km/h (1 Bft) 95,92 %
19.12.2020 07:30 5,8 C 5,0 C 3,8 C 97 % 1014,3 hPa 0,0 l/m 0 min 0 min 0 W/m 3,2 km/h (1 Bft) 93,62 %
19.12.2020 07:32 5,8 C 5,0 C 3,8 C 97 % 1014,2 hPa 0,0 l/m 0 min 0 min 0 W/m 3,2 km/h (1 Bft) 95,74 %
19.12.2020 07:34 5,8 C 5,0 C 3,8 C 97 % 1014,2 hPa 0,0 l/m 0 min 0 min 0 W/m 0,0 km/h (0 Bft) 97,14 %
19.12.2020 07:36 5,8 C 5,0 C 3,8 C 97 % 1014,2 hPa 0,0 l/m 0 min 0 min 0 W/m 0,0 km/h (0 Bft) 98,11 %
19.12.2020 07:38 5,8 C 5,0 C 3,8 C 97 % 1014,2 hPa 0,0 l/m 0 min 0 min 0 W/m 3,2 km/h (1 Bft) 94,00 %
19.12.2020 07:40 5,8 C 5,0 C 3,8 C 97 % 1014,2 hPa 0,0 l/m 0 min 0 min 0 W/m 3,2 km/h (1 Bft) 97,83 %
19.12.2020 07:42 5,8 C 5,0 C 3,8 C 97 % 1014,1 hPa 0,0 l/m 0 min 0 min 0 W/m 0,0 km/h (0 Bft) 98,00 %
19.12.2020 07:44 5,8 C 5,0 C 3,8 C 97 % 1014,2 hPa 0,0 l/m 0 min 0 min 0 W/m 3,2 km/h (1 Bft) 55,32 %
19.12.2020 07:46 5,8 C 5,0 C 3,8 C 97 % 1014,4 hPa 0,0 l/m 0 min 0 min 0 W/m 19,3 km/h (3 Bft) 95,74 %
19.12.2020 07:48 5,8 C 5,0 C 3,8 C 97 % 1014,4 hPa 0,0 l/m 0 min 0 min 0 W/m 6,4 km/h (2 Bft) 100,00 %
19.12.2020 07:50 5,8 C 5,0 C 3,8 C 97 % 1014,4 hPa 0,0 l/m 0 min 0 min 0 W/m 0,0 km/h (0 Bft) 96,00 %
19.12.2020 07:52 5,8 C 5,0 C 3,8 C 97 % 1014,4 hPa 0,0 l/m 0 min 0 min 0 W/m 6,4 km/h (2 Bft) 97,96 %
19.12.2020 07:54 5,8 C 5,0 C 3,8 C 97 % 1014,4 hPa 0,0 l/m 0 min 0 min 0 W/m 3,2 km/h (1 Bft) 97,87 %
19.12.2020 07:56 5,8 C 5,0 C 3,8 C 97 % 1014,4 hPa 0,0 l/m 0 min 0 min 0 W/m 6,4 km/h (2 Bft) 97,87 %
19.12.2020 07:58 5,8 C 5,0 C 3,8 C 97 % 1014,4 hPa 0,0 l/m 0 min 0 min 0 W/m 12,9 km/h (3 Bft) 97,56 %
19.12.2020 08:00 5,8 C 5,0 C 3,8 C 97 % 1014,3 hPa 0,0 l/m 0 min 0 min 0 W/m 6,4 km/h (2 Bft) 98,00 %
19.12.2020 08:02 5,8 C 5,0 C 3,8 C 97 % 1014,3 hPa 0,0 l/m 0 min 0 min 0 W/m 6,4 km/h (2 Bft) 97,96 %
19.12.2020 08:04 5,8 C 5,0 C 3,8 C 97 % 1014,4 hPa 0,0 l/m 0 min 0 min 0 W/m 6,4 km/h (2 Bft) 97,87 %
19.12.2020 08:06 5,8 C 5,0 C 3,8 C 97 % 1014,4 hPa 0,0 l/m 0 min 0 min 0 W/m 6,4 km/h (2 Bft) 97,56 %
19.12.2020 08:08 5,8 C 5,0 C 3,8 C 97 % 1014,3 hPa 0,0 l/m 0 min 0 min 0 W/m 3,2 km/h (1 Bft) 98,00 %
19.12.2020 08:10 5,8 C 5,0 C 3,8 C 97 % 1014,4 hPa 0,0 l/m 0 min 0 min 0 W/m 12,9 km/h (3 Bft) 100,00 %
19.12.2020 08:12 5,8 C 5,0 C 3,8 C 97 % 1014,4 hPa 0,0 l/m 0 min 0 min 0 W/m 12,9 km/h (3 Bft) 100,00 %
19.12.2020 08:14 5,8 C 5,0 C 3,8 C 97 % 1014,4 hPa 0,0 l/m 0 min 0 min 0 W/m 6,4 km/h (2 Bft) 97,87 %
19.12.2020 08:16 5,8 C 5,0 C 3,8 C 97 % 1014,4 hPa 0,0 l/m 0 min 0 min 0 W/m 16,1 km/h (3 Bft) 100,00 %
19.12.2020 08:18 5,8 C 5,6 C 4,4 C 97 % 1014,4 hPa 0,0 l/m 0 min 0 min 0 W/m 19,3 km/h (3 Bft) 100,00 %
19.12.2020 08:20 5,8 C 5,0 C 3,8 C 97 % 1014,5 hPa 0,0 l/m 0 min 0 min 0 W/m 3,2 km/h (1 Bft) 98,00 %
19.12.2020 08:22 5,8 C 5,0 C 4,4 C 97 % 1014,4 hPa 0,0 l/m 0 min 0 min 0 W/m 6,4 km/h (2 Bft) 100,00 %
19.12.2020 08:24 5,8 C 5,6 C 4,4 C 97 % 1014,5 hPa 0,0 l/m 0 min 0 min 0 W/m 6,4 km/h (2 Bft) 97,83 %
19.12.2020 08:26 5,8 C 5,6 C 4,4 C 97 % 1014,5 hPa 0,0 l/m 0 min 0 min 0 W/m 6,4 km/h (2 Bft) 100,00 %
19.12.2020 08:28 5,8 C 5,6 C 4,4 C 97 % 1014,6 hPa 0,0 l/m 0 min 0 min 0 W/m 3,2 km/h (1 Bft) 100,00 %
19.12.2020 08:30 5,8 C 5,6 C 4,4 C 97 % 1014,6 hPa 0,0 l/m 0 min 0 min 0 W/m 3,2 km/h (1 Bft) 97,87 %
19.12.2020 08:32 5,9 C 5,6 C 4,4 C 97 % 1014,6 hPa 0,0 l/m 0 min 0 min 0 W/m 6,4 km/h (2 Bft) 97,56 %
19.12.2020 08:34 5,9 C 5,6 C 4,4 C 97 % 1014,6 hPa 0,0 l/m 0 min 0 min 0 W/m 16,1 km/h (3 Bft) 98,00 %
19.12.2020 08:36 5,9 C 5,6 C 4,4 C 97 % 1014,6 hPa 0,0 l/m 0 min 0 min 0 W/m 0,0 km/h (0 Bft) 97,73 %
19.12.2020 08:38 5,9 C 5,6 C 4,4 C 97 % 1014,6 hPa 0,0 l/m 0 min 0 min 0 W/m 3,2 km/h (1 Bft) 95,92 %
19.12.2020 08:40 5,9 C 5,6 C 4,4 C 97 % 1014,6 hPa 0,0 l/m 0 min 0 min 0 W/m 6,4 km/h (2 Bft) 96,00 %
19.12.2020 08:42 5,9 C 5,6 C 4,4 C 97 % 1014,6 hPa 0,0 l/m 0 min 0 min 4 W/m 9,7 km/h (2 Bft) 93,62 %
19.12.2020 08:44 6,0 C 5,6 C 4,4 C 97 % 1014,6 hPa 0,0 l/m 0 min 0 min 5 W/m 12,9 km/h (3 Bft) 97,87 %
19.12.2020 08:46 6,0 C 5,6 C 4,4 C 97 % 1014,5 hPa 0,0 l/m 0 min 0 min 5 W/m 6,4 km/h (2 Bft) 95,12 %
19.12.2020 08:48 6,0 C 5,6 C 4,4 C 97 % 1014,5 hPa 0,0 l/m 0 min 0 min 5 W/m 6,4 km/h (2 Bft) 98,00 %
19.12.2020 08:50 6,0 C 5,6 C 4,4 C 97 % 1014,5 hPa 0,0 l/m 0 min 0 min 6 W/m 6,4 km/h (2 Bft) 97,96 %
19.12.2020 08:52 6,0 C 5,6 C 4,4 C 97 % 1014,5 hPa 0,0 l/m 0 min 0 min 7 W/m 12,9 km/h (3 Bft) 97,87 %
19.12.2020 08:54 6,0 C 5,6 C 4,4 C 97 % 1014,5 hPa 0,0 l/m 0 min 0 min 7 W/m 0,0 km/h (0 Bft) 97,56 %
19.12.2020 08:56 6,0 C 5,6 C 4,4 C 97 % 1014,5 hPa 0,0 l/m 0 min 0 min 7 W/m 3,2 km/h (1 Bft) 98,00 %
19.12.2020 08:58 6,1 C 5,6 C 4,4 C 97 % 1014,5 hPa 0,0 l/m 0 min 0 min 9 W/m 16,1 km/h (3 Bft) 97,96 %
19.12.2020 09:00 6,1 C 5,6 C 4,4 C 97 % 1014,5 hPa 0,0 l/m 0 min 0 min 9 W/m 9,7 km/h (2 Bft) 97,87 %
19.12.2020 09:02 6,1 C 5,6 C 4,4 C 97 % 1014,5 hPa 0,0 l/m 0 min 0 min 9 W/m 3,2 km/h (1 Bft) 97,87 %
19.12.2020 09:04 6,1 C 5,6 C 4,4 C 97 % 1014,5 hPa 0,0 l/m 0 min 0 min 10 W/m 3,2 km/h (1 Bft) 97,56 %
19.12.2020 09:06 6,1 C 5,6 C 4,4 C 97 % 1014,5 hPa 0,0 l/m 0 min 0 min 11 W/m 0,0 km/h (0 Bft) 98,00 %
19.12.2020 09:08 6,1 C 5,6 C 4,4 C 97 % 1014,5 hPa 0,0 l/m 0 min 0 min 11 W/m 6,4 km/h (2 Bft) 97,87 %
19.12.2020 09:10 6,1 C 5,6 C 4,9 C 98 % 1014,5 hPa 0,0 l/m 0 min 0 min 11 W/m 6,4 km/h (2 Bft) 97,87 %
19.12.2020 09:12 6,1 C 6,1 C 4,9 C 98 % 1014,4 hPa 0,0 l/m 0 min 0 min 12 W/m 6,4 km/h (2 Bft) 95,92 %
19.12.2020 09:14 6,2 C 6,1 C 4,9 C 98 % 1014,3 hPa 0,0 l/m 0 min 0 min 12 W/m 19,3 km/h (3 Bft) 97,87 %
19.12.2020 09:16 6,3 C 6,1 C 4,9 C 98 % 1014,4 hPa 0,0 l/m 0 min 0 min 12 W/m 6,4 km/h (2 Bft) 100,00 %
19.12.2020 09:18 6,3 C 6,1 C 4,9 C 98 % 1014,3 hPa 0,0 l/m 0 min 0 min 12 W/m 12,9 km/h (3 Bft) 100,00 %
19.12.2020 09:20 6,3 C 6,1 C 4,9 C 97 % 1014,2 hPa 0,0 l/m 0 min 0 min 12 W/m 6,4 km/h (2 Bft) 100,00 %
19.12.2020 09:22 6,4 C 6,1 C 4,9 C 97 % 1014,2 hPa 0,0 l/m 0 min 0 min 14 W/m 3,2 km/h (1 Bft) 100,00 %
19.12.2020 09:24 6,4 C 6,1 C 4,9 C 97 % 1014,2 hPa 0,0 l/m 0 min 0 min 14 W/m 19,3 km/h (3 Bft) 100,00 %
19.12.2020 09:26 6,4 C 6,1 C 4,9 C 97 % 1014,2 hPa 0,0 l/m 0 min 0 min 14 W/m 6,4 km/h (2 Bft) 100,00 %
19.12.2020 09:28 6,4 C 6,1 C 4,9 C 97 % 1014,2 hPa 0,0 l/m 0 min 0 min 14 W/m 16,1 km/h (3 Bft) 100,00 %
19.12.2020 09:30 6,5 C 6,1 C 4,9 C 97 % 1014,2 hPa 0,0 l/m 0 min 0 min 15 W/m 6,4 km/h (2 Bft) 100,00 %
19.12.2020 09:32 6,5 C 6,1 C 4,9 C 97 % 1014,2 hPa 0,0 l/m 0 min 0 min 16 W/m 6,4 km/h (2 Bft) 97,56 %
19.12.2020 09:34 6,5 C 6,1 C 4,9 C 97 % 1014,2 hPa 0,0 l/m 0 min 0 min 16 W/m 6,4 km/h (2 Bft) 94,00 %
19.12.2020 09:36 6,5 C 6,1 C 4,9 C 98 % 1014,2 hPa 0,0 l/m 0 min 0 min 16 W/m 12,9 km/h (3 Bft) 95,92 %
19.12.2020 09:38 6,6 C 6,1 C 4,9 C 98 % 1014,2 hPa 0,0 l/m 0 min 0 min 16 W/m 3,2 km/h (1 Bft) 97,87 %
19.12.2020 09:40 6,6 C 6,7 C 5,5 C 98 % 1014,2 hPa 0,0 l/m 0 min 0 min 17 W/m 12,9 km/h (3 Bft) 97,87 %
19.12.2020 09:42 6,6 C 6,7 C 5,5 C 97 % 1014,2 hPa 0,0 l/m 0 min 0 min 18 W/m 3,2 km/h (1 Bft) 95,74 %
19.12.2020 09:44 6,6 C 6,7 C 5,5 C 97 % 1014,3 hPa 0,0 l/m 0 min 0 min 18 W/m 12,9 km/h (3 Bft) 97,56 %
19.12.2020 09:46 6,7 C 6,7 C 5,5 C 97 % 1014,2 hPa 0,0 l/m 0 min 0 min 18 W/m 16,1 km/h (3 Bft) 95,74 %
19.12.2020 09:48 6,8 C 6,7 C 5,5 C 97 % 1014,3 hPa 0,0 l/m 0 min 0 min 19 W/m 6,4 km/h (2 Bft) 97,96 %
19.12.2020 09:50 6,8 C 6,7 C 5,5 C 97 % 1014,3 hPa 0,0 l/m 0 min 0 min 19 W/m 12,9 km/h (3 Bft) 97,87 %
19.12.2020 09:52 6,8 C 6,7 C 5,5 C 98 % 1014,3 hPa 0,0 l/m 0 min 0 min 19 W/m 12,9 km/h (3 Bft) 98,00 %
19.12.2020 09:54 6,9 C 6,7 C 5,5 C 98 % 1014,4 hPa 0,0 l/m 0 min 0 min 19 W/m 12,9 km/h (3 Bft) 97,87 %
19.12.2020 09:56 6,9 C 6,7 C 5,5 C 97 % 1014,3 hPa 0,0 l/m 0 min 0 min 19 W/m 3,2 km/h (1 Bft) 97,56 %
19.12.2020 09:58 6,9 C 6,7 C 5,5 C 97 % 1014,3 hPa 0,0 l/m 0 min 0 min 21 W/m 12,9 km/h (3 Bft) 97,96 %
19.12.2020 10:00 7,0 C 6,7 C 5,5 C 97 % 1014,3 hPa 0,0 l/m 0 min 0 min 21 W/m 12,9 km/h (3 Bft) 96,00 %
19.12.2020 10:02 7,0 C 6,7 C 5,5 C 97 % 1014,3 hPa 0,0 l/m 0 min 0 min 21 W/m 6,4 km/h (2 Bft) 95,74 %
19.12.2020 10:04 7,0 C 6,7 C 5,5 C 97 % 1014,3 hPa 0,0 l/m 0 min 0 min 21 W/m 6,4 km/h (2 Bft) 97,87 %
19.12.2020 10:06 7,0 C 6,7 C 5,5 C 97 % 1014,3 hPa 0,0 l/m 0 min 0 min 21 W/m 22,5 km/h (4 Bft) 97,87 %
19.12.2020 10:08 7,1 C 7,2 C 5,5 C 97 % 1014,3 hPa 0,0 l/m 0 min 0 min 21 W/m 6,4 km/h (2 Bft) 95,12 %
19.12.2020 10:10 7,1 C 7,2 C 5,5 C 97 % 1014,4 hPa 0,0 l/m 0 min 0 min 22 W/m 0,0 km/h (0 Bft) 51,16 %
19.12.2020 10:12 7,1 C 7,2 C 5,5 C 97 % 1014,4 hPa 0,0 l/m 0 min 0 min 23 W/m 3,2 km/h (1 Bft) 97,96 %
19.12.2020 10:14 7,1 C 7,2 C 6,1 C 97 % 1014,4 hPa 0,0 l/m 0 min 0 min 23 W/m 9,7 km/h (2 Bft) 98,00 %
19.12.2020 10:16 7,1 C 7,2 C 6,1 C 97 % 1014,4 hPa 0,0 l/m 0 min 0 min 23 W/m 12,9 km/h (3 Bft) 97,87 %
19.12.2020 10:18 7,2 C 7,2 C 6,1 C 97 % 1014,4 hPa 0,0 l/m 0 min 0 min 23 W/m 3,2 km/h (1 Bft) 100,00 %
19.12.2020 10:20 7,2 C 7,2 C 6,1 C 97 % 1014,5 hPa 0,0 l/m 0 min 0 min 25 W/m 12,9 km/h (3 Bft) 100,00 %
19.12.2020 10:22 7,3 C 7,2 C 6,1 C 97 % 1014,5 hPa 0,0 l/m 0 min 0 min 25 W/m 16,1 km/h (3 Bft) 100,00 %
19.12.2020 10:24 7,3 C 7,2 C 6,1 C 97 % 1014,4 hPa 0,0 l/m 0 min 0 min 25 W/m 3,2 km/h (1 Bft) 100,00 %
19.12.2020 10:26 7,3 C 7,2 C 6,1 C 97 % 1014,5 hPa 0,0 l/m 0 min 0 min 25 W/m 6,4 km/h (2 Bft) 97,87 %
19.12.2020 10:28 7,4 C 7,2 C 6,1 C 97 % 1014,4 hPa 0,0 l/m 0 min 0 min 25 W/m 6,4 km/h (2 Bft) 100,00 %
19.12.2020 10:30 7,4 C 7,2 C 6,1 C 97 % 1014,4 hPa 0,0 l/m 0 min 0 min 25 W/m 6,4 km/h (2 Bft) 100,00 %
19.12.2020 10:32 7,4 C 7,2 C 6,1 C 97 % 1014,5 hPa 0,0 l/m 0 min 0 min 25 W/m 3,2 km/h (1 Bft) 100,00 %
19.12.2020 10:34 7,5 C 7,2 C 6,1 C 97 % 1014,5 hPa 0,0 l/m 0 min 0 min 25 W/m 12,9 km/h (3 Bft) 100,00 %
19.12.2020 10:36 7,5 C 7,2 C 6,1 C 97 % 1014,5 hPa 0,0 l/m 0 min 0 min 25 W/m 12,9 km/h (3 Bft) 100,00 %
19.12.2020 10:38 7,5 C 7,2 C 6,1 C 97 % 1014,4 hPa 0,0 l/m 0 min 0 min 26 W/m 16,1 km/h (3 Bft) 100,00 %
19.12.2020 10:40 7,6 C 7,8 C 6,1 C 97 % 1014,6 hPa 0,0 l/m 0 min 0 min 26 W/m 12,9 km/h (3 Bft) 100,00 %
19.12.2020 10:42 7,6 C 7,8 C 6,1 C 96 % 1014,5 hPa 0,0 l/m 0 min 0 min 26 W/m 3,2 km/h (1 Bft) 98,18 %
19.12.2020 10:44 7,6 C 7,8 C 6,1 C 97 % 1014,6 hPa 0,0 l/m 0 min 0 min 26 W/m 6,4 km/h (2 Bft) 100,00 %
19.12.2020 10:46 7,7 C 7,8 C 6,1 C 96 % 1014,6 hPa 0,0 l/m 0 min 0 min 26 W/m 16,1 km/h (3 Bft) 100,00 %
19.12.2020 10:48 7,7 C 7,8 C 6,6 C 96 % 1014,5 hPa 0,0 l/m 0 min 0 min 26 W/m 6,4 km/h (2 Bft) 100,00 %
19.12.2020 10:50 7,8 C 7,8 C 6,6 C 96 % 1014,4 hPa 0,0 l/m 0 min 0 min 26 W/m 19,3 km/h (3 Bft) 100,00 %
19.12.2020 10:52 7,8 C 7,8 C 6,6 C 96 % 1014,5 hPa 0,0 l/m 0 min 0 min 26 W/m 16,1 km/h (3 Bft) 97,87 %
19.12.2020 10:54 7,9 C 7,8 C 6,6 C 96 % 1014,5 hPa 0,0 l/m 0 min 0 min 27 W/m 19,3 km/h (3 Bft) 98,18 %
19.12.2020 10:56 7,9 C 7,8 C 6,6 C 96 % 1014,5 hPa 0,0 l/m 0 min 0 min 28 W/m 6,4 km/h (2 Bft) 100,00 %
19.12.2020 10:58 7,9 C 7,8 C 6,6 C 96 % 1014,5 hPa 0,0 l/m 0 min 0 min 28 W/m 3,2 km/h (1 Bft) 100,00 %
19.12.2020 11:00 7,9 C 7,8 C 6,6 C 96 % 1014,5 hPa 0,0 l/m 0 min 0 min 28 W/m 3,2 km/h (1 Bft) 97,87 %
19.12.2020 11:02 8,0 C 7,8 C 6,6 C 96 % 1014,5 hPa 0,0 l/m 0 min 0 min 28 W/m 3,2 km/h (1 Bft) 97,87 %
19.12.2020 11:04 8,0 C 7,8 C 6,6 C 96 % 1014,5 hPa 0,0 l/m 0 min 0 min 28 W/m 6,4 km/h (2 Bft) 100,00 %
19.12.2020 11:06 8,0 C 7,8 C 6,6 C 96 % 1014,5 hPa 0,0 l/m 0 min 0 min 29 W/m 3,2 km/h (1 Bft) 100,00 %
19.12.2020 11:08 8,0 C 8,3 C 6,6 C 95 % 1014,5 hPa 0,0 l/m 0 min 0 min 30 W/m 12,9 km/h (3 Bft) 100,00 %
19.12.2020 11:10 8,1 C 8,3 C 6,6 C 95 % 1014,5 hPa 0,0 l/m 0 min 0 min 30 W/m 12,9 km/h (3 Bft) 97,87 %
19.12.2020 11:12 8,1 C 8,3 C 6,6 C 96 % 1014,5 hPa 0,0 l/m 0 min 0 min 30 W/m 3,2 km/h (1 Bft) 97,87 %
19.12.2020 11:14 8,2 C 8,3 C 7,2 C 95 % 1014,4 hPa 0,0 l/m 0 min 0 min 30 W/m 0,0 km/h (0 Bft) 97,87 %
19.12.2020 11:16 8,3 C 8,3 C 7,2 C 95 % 1014,5 hPa 0,0 l/m 0 min 0 min 61 W/m 0,0 km/h (0 Bft) 98,18 %
19.12.2020 11:18 8,3 C 8,3 C 7,2 C 95 % 1014,4 hPa 0,0 l/m 2 min 0 min 194 W/m 6,4 km/h (2 Bft) 97,83 %
19.12.2020 11:20 8,4 C 9,4 C 7,2 C 95 % 1014,4 hPa 0,0 l/m 2 min 0 min 223 W/m 3,2 km/h (1 Bft) 97,44 %
19.12.2020 11:22 8,4 C 11,1 C 7,2 C 95 % 1014,4 hPa 0,0 l/m 2 min 0 min 225 W/m 3,2 km/h (1 Bft) 95,74 %
19.12.2020 11:24 8,5 C 12,2 C 7,2 C 95 % 1014,4 hPa 0,0 l/m 2 min 0 min 229 W/m 0,0 km/h (0 Bft) 95,74 %
19.12.2020 11:26 8,5 C 12,8 C 7,2 C 95 % 1014,4 hPa 0,0 l/m 2 min 0 min 230 W/m 0,0 km/h (0 Bft) 95,74 %
19.12.2020 11:28 8,6 C 12,8 C 7,2 C 95 % 1014,3 hPa 0,0 l/m 2 min 0 min 233 W/m 6,4 km/h (2 Bft) 97,87 %
19.12.2020 11:30 8,8 C 12,8 C 7,2 C 95 % 1014,3 hPa 0,0 l/m 2 min 0 min 234 W/m 16,1 km/h (3 Bft) 94,44 %
19.12.2020 11:32 8,8 C 12,8 C 7,7 C 95 % 1014,3 hPa 0,0 l/m 2 min 0 min 238 W/m 3,2 km/h (1 Bft) 97,44 %
19.12.2020 11:34 8,9 C 12,8 C 7,7 C 94 % 1014,2 hPa 0,0 l/m 2 min 0 min 242 W/m 6,4 km/h (2 Bft) 97,87 %
19.12.2020 11:36 9,0 C 13,3 C 7,7 C 94 % 1014,1 hPa 0,0 l/m 2 min 0 min 246 W/m 0,0 km/h (0 Bft) 97,87 %
19.12.2020 11:38 9,1 C 13,3 C 7,7 C 94 % 1014,1 hPa 0,0 l/m 2 min 0 min 247 W/m 6,4 km/h (2 Bft) 96,36 %
19.12.2020 11:40 9,1 C 13,9 C 7,7 C 94 % 1014,1 hPa 0,0 l/m 2 min 0 min 249 W/m 3,2 km/h (1 Bft) 95,74 %
19.12.2020 11:42 9,3 C 13,9 C 7,7 C 93 % 1014,1 hPa 0,0 l/m 2 min 0 min 258 W/m 3,2 km/h (1 Bft) 94,74 %
19.12.2020 11:44 9,3 C 13,9 C 7,7 C 93 % 1014,1 hPa 0,0 l/m 2 min 0 min 241 W/m 0,0 km/h (0 Bft) 95,74 %
19.12.2020 11:46 9,4 C 13,9 C 8,3 C 93 % 1014,0 hPa 0,0 l/m 2 min 0 min 238 W/m 3,2 km/h (1 Bft) 97,87 %
19.12.2020 11:48 9,5 C 12,8 C 8,3 C 93 % 1014,0 hPa 0,0 l/m 2 min 0 min 258 W/m 0,0 km/h (0 Bft) 98,18 %
19.12.2020 11:50 9,5 C 11,7 C 8,3 C 92 % 1014,0 hPa 0,0 l/m 0 min 0 min 106 W/m 3,2 km/h (1 Bft) 97,37 %
19.12.2020 11:52 9,6 C 11,7 C 8,3 C 92 % 1014,0 hPa 0,0 l/m 0 min 0 min 142 W/m 6,4 km/h (2 Bft) 97,87 %
19.12.2020 11:54 9,6 C 11,7 C 8,3 C 92 % 1014,0 hPa 0,0 l/m 2 min 0 min 178 W/m 0,0 km/h (0 Bft) 97,87 %
19.12.2020 11:56 9,7 C 11,7 C 8,3 C 92 % 1014,0 hPa 0,0 l/m 2 min 0 min 165 W/m 0,0 km/h (0 Bft) 97,87 %
19.12.2020 11:58 9,7 C 11,7 C 8,3 C 91 % 1014,0 hPa 0,0 l/m 2 min 0 min 180 W/m 3,2 km/h (1 Bft) 95,74 %
19.12.2020 12:00 9,8 C 11,7 C 8,3 C 91 % 1013,9 hPa 0,0 l/m 2 min 0 min 153 W/m 6,4 km/h (2 Bft) 95,65 %
19.12.2020 12:02 9,8 C 12,2 C 8,8 C 91 % 1013,9 hPa 0,0 l/m 2 min 0 min 153 W/m 0,0 km/h (0 Bft) 91,49 %
19.12.2020 12:04 9,9 C 11,7 C 8,8 C 91 % 1013,9 hPa 0,0 l/m 2 min 0 min 157 W/m 3,2 km/h (1 Bft) 93,62 %
19.12.2020 12:08 9,9 C 11,7 C 8,8 C 91 % 1013,8 hPa 0,0 l/m 0 min 0 min 133 W/m 0,0 km/h (0 Bft) 95,70 %
19.12.2020 12:10 9,9 C 11,1 C 8,8 C 91 % 1013,8 hPa 0,0 l/m 0 min 0 min 114 W/m 0,0 km/h (0 Bft) 95,74 %
19.12.2020 12:12 9,9 C 10,6 C 8,8 C 90 % 1013,7 hPa 0,0 l/m 0 min 0 min 97 W/m 0,0 km/h (0 Bft) 95,74 %
19.12.2020 12:14 9,9 C 10,6 C 8,8 C 90 % 1013,7 hPa 0,0 l/m 0 min 0 min 112 W/m 3,2 km/h (1 Bft) 95,83 %
19.12.2020 12:16 9,9 C 11,1 C 8,8 C 90 % 1013,7 hPa 0,0 l/m 2 min 0 min 157 W/m 3,2 km/h (1 Bft) 95,65 %
19.12.2020 12:18 9,9 C 11,7 C 9,4 C 90 % 1013,7 hPa 0,0 l/m 2 min 0 min 203 W/m 0,0 km/h (0 Bft) 94,55 %
19.12.2020 12:20 10,0 C 12,2 C 9,4 C 90 % 1013,6 hPa 0,0 l/m 2 min 0 min 221 W/m 22,5 km/h (4 Bft) 94,74 %
19.12.2020 12:22 10,0 C 12,2 C 9,4 C 90 % 1013,7 hPa 0,0 l/m 2 min 0 min 177 W/m 0,0 km/h (0 Bft) 93,62 %
19.12.2020 12:24 10,0 C 12,2 C 9,4 C 90 % 1013,6 hPa 0,0 l/m 2 min 0 min 206 W/m 6,4 km/h (2 Bft) 95,83 %
19.12.2020 12:26 10,1 C 11,7 C 9,4 C 90 % 1013,5 hPa 0,0 l/m 2 min 0 min 167 W/m 3,2 km/h (1 Bft) 95,74 %
19.12.2020 12:28 10,1 C 11,7 C 9,4 C 90 % 1013,5 hPa 0,0 l/m 2 min 0 min 150 W/m 3,2 km/h (1 Bft) 95,65 %
19.12.2020 12:30 10,1 C 11,1 C 9,4 C 90 % 1013,5 hPa 0,0 l/m 0 min 0 min 138 W/m 0,0 km/h (0 Bft) 94,55 %
19.12.2020 12:32 10,2 C 11,1 C 9,4 C 90 % 1013,5 hPa 0,0 l/m 0 min 0 min 134 W/m 3,2 km/h (1 Bft) 100,00 %
19.12.2020 12:34 10,3 C 11,1 C 9,4 C 90 % 1013,5 hPa 0,0 l/m 0 min 0 min 137 W/m 3,2 km/h (1 Bft) 93,62 %
19.12.2020 12:36 10,3 C 10,6 C 9,4 C 90 % 1013,5 hPa 0,0 l/m 0 min 0 min 135 W/m 3,2 km/h (1 Bft) 100,00 %
19.12.2020 12:38 10,3 C 11,1 C 9,4 C 89 % 1013,4 hPa 0,0 l/m 0 min 0 min 144 W/m 3,2 km/h (1 Bft) 100,00 %
19.12.2020 12:40 10,3 C 12,2 C 9,9 C 90 % 1013,4 hPa 0,0 l/m 2 min 0 min 216 W/m 0,0 km/h (0 Bft) 100,00 %
19.12.2020 12:42 10,4 C 13,3 C 10,5 C 90 % 1013,4 hPa 0,0 l/m 2 min 0 min 276 W/m 3,2 km/h (1 Bft) 100,00 %
19.12.2020 12:44 10,4 C 13,3 C 10,5 C 90 % 1013,3 hPa 0,0 l/m 2 min 0 min 270 W/m 0,0 km/h (0 Bft) 100,00 %
19.12.2020 12:46 10,5 C 14,4 C 11,1 C 90 % 1013,3 hPa 0,0 l/m 2 min 0 min 335 W/m 3,2 km/h (1 Bft) 100,00 %
19.12.2020 12:48 10,6 C 15,0 C 12,2 C 90 % 1013,2 hPa 0,0 l/m 2 min 0 min 360 W/m 3,2 km/h (1 Bft) 100,00 %
19.12.2020 12:50 10,8 C 15,6 C 12,2 C 90 % 1013,2 hPa 0,0 l/m 2 min 0 min 331 W/m 3,2 km/h (1 Bft) 100,00 %
19.12.2020 12:52 10,9 C 15,6 C 12,2 C 90 % 1013,1 hPa 0,0 l/m 2 min 0 min 321 W/m 0,0 km/h (0 Bft) 97,14 %
19.12.2020 12:54 11,0 C 15,0 C 12,2 C 89 % 1013,1 hPa 0,0 l/m 2 min 0 min 306 W/m 3,2 km/h (1 Bft) 100,00 %
19.12.2020 12:56 11,1 C 15,0 C 12,2 C 89 % 1012,9 hPa 0,0 l/m 2 min 0 min 317 W/m 3,2 km/h (1 Bft) 100,00 %
19.12.2020 12:58 11,3 C 15,0 C 12,2 C 89 % 1012,9 hPa 0,0 l/m 2 min 0 min 323 W/m 3,2 km/h (1 Bft) 98,00 %
19.12.2020 13:00 11,4 C 15,6 C 12,2 C 88 % 1012,9 hPa 0,0 l/m 2 min 0 min 331 W/m 3,2 km/h (1 Bft) 100,00 %
19.12.2020 13:02 11,5 C 16,1 C 12,2 C 88 % 1013,0 hPa 0,0 l/m 2 min 0 min 340 W/m 0,0 km/h (0 Bft) 97,87 %
19.12.2020 13:04 11,6 C 16,7 C 12,7 C 88 % 1013,0 hPa 0,0 l/m 2 min 0 min 332 W/m 0,0 km/h (0 Bft) 97,83 %
19.12.2020 13:06 11,7 C 16,1 C 12,2 C 88 % 1012,9 hPa 0,0 l/m 2 min 0 min 326 W/m 0,0 km/h (0 Bft) 98,11 %
19.12.2020 13:08 11,8 C 16,1 C 11,6 C 87 % 1012,9 hPa 0,0 l/m 2 min 0 min 320 W/m 3,2 km/h (1 Bft) 97,87 %
19.12.2020 13:10 11,9 C 16,1 C 12,2 C 87 % 1012,8 hPa 0,0 l/m 2 min 0 min 312 W/m 3,2 km/h (1 Bft) 100,00 %
19.12.2020 13:12 12,0 C 16,1 C 12,2 C 87 % 1012,8 hPa 0,0 l/m 2 min 0 min 304 W/m 3,2 km/h (1 Bft) 98,00 %
19.12.2020 13:14 12,1 C 15,6 C 11,6 C 86 % 1012,8 hPa 0,0 l/m 2 min 0 min 302 W/m 3,2 km/h (1 Bft) 97,37 %
19.12.2020 13:16 12,1 C 13,9 C 11,1 C 86 % 1012,8 hPa 0,0 l/m 0 min 0 min 142 W/m 3,2 km/h (1 Bft) 97,83 %
19.12.2020 13:18 12,1 C 13,3 C 11,1 C 86 % 1012,9 hPa 0,0 l/m 2 min 0 min 149 W/m 3,2 km/h (1 Bft) 98,11 %
19.12.2020 13:20 12,1 C 12,8 C 10,5 C 85 % 1012,9 hPa 0,0 l/m 0 min 0 min 80 W/m 3,2 km/h (1 Bft) 98,00 %
19.12.2020 13:22 12,1 C 12,2 C 10,5 C 85 % 1012,9 hPa 0,0 l/m 0 min 0 min 72 W/m 6,4 km/h (2 Bft) 97,37 %
19.12.2020 13:24 12,1 C 11,7 C 10,5 C 85 % 1012,9 hPa 0,0 l/m 0 min 0 min 65 W/m 19,3 km/h (3 Bft) 97,87 %
19.12.2020 13:26 12,0 C 11,7 C 10,5 C 85 % 1012,9 hPa 0,0 l/m 0 min 0 min 74 W/m 3,2 km/h (1 Bft) 98,11 %
19.12.2020 13:28 12,0 C 12,8 C 11,1 C 85 % 1012,9 hPa 0,0 l/m 2 min 0 min 141 W/m 16,1 km/h (3 Bft) 97,96 %
19.12.2020 13:30 12,0 C 12,2 C 11,1 C 85 % 1012,9 hPa 0,0 l/m 0 min 0 min 109 W/m 3,2 km/h (1 Bft) 97,37 %
19.12.2020 13:32 12,0 C 12,8 C 11,1 C 85 % 1012,9 hPa 0,0 l/m 0 min 0 min 132 W/m 3,2 km/h (1 Bft) 97,87 %
19.12.2020 13:34 11,9 C 12,2 C 11,1 C 85 % 1012,9 hPa 0,0 l/m 0 min 0 min 78 W/m 25,7 km/h (4 Bft) 98,11 %
19.12.2020 13:36 11,9 C 12,2 C 10,5 C 85 % 1012,9 hPa 0,0 l/m 0 min 0 min 81 W/m 3,2 km/h (1 Bft) 98,00 %
19.12.2020 13:38 11,9 C 12,2 C 11,1 C 85 % 1012,9 hPa 0,0 l/m 0 min 0 min 100 W/m 0,0 km/h (0 Bft) 97,83 %
19.12.2020 13:40 11,9 C 12,8 C 11,1 C 85 % 1012,9 hPa 0,0 l/m 2 min 0 min 168 W/m 0,0 km/h (0 Bft) 95,74 %
19.12.2020 13:42 11,9 C 12,2 C 11,1 C 86 % 1013,0 hPa 0,0 l/m 0 min 0 min 97 W/m 0,0 km/h (0 Bft) 100,00 %
19.12.2020 13:44 11,9 C 12,2 C 10,5 C 86 % 1013,0 hPa 0,0 l/m 0 min 0 min 65 W/m 0,0 km/h (0 Bft) 97,87 %
19.12.2020 13:46 11,9 C 11,7 C 9,9 C 86 % 1013,0 hPa 0,0 l/m 0 min 0 min 63 W/m 0,0 km/h (0 Bft) 96,23 %
19.12.2020 13:48 11,8 C 11,7 C 9,9 C 86 % 1012,9 hPa 0,0 l/m 0 min 0 min 63 W/m 3,2 km/h (1 Bft) 98,00 %
19.12.2020 13:50 11,8 C 11,7 C 9,9 C 86 % 1012,9 hPa 0,0 l/m 0 min 0 min 65 W/m 3,2 km/h (1 Bft) 97,30 %
19.12.2020 13:52 11,8 C 11,1 C 9,9 C 86 % 1012,8 hPa 0,0 l/m 0 min 0 min 69 W/m 0,0 km/h (0 Bft) 97,87 %
19.12.2020 13:54 11,8 C 11,7 C 9,9 C 86 % 1012,9 hPa 0,0 l/m 0 min 0 min 75 W/m 3,2 km/h (1 Bft) 97,87 %
19.12.2020 13:56 11,7 C 11,7 C 9,9 C 86 % 1012,9 hPa 0,0 l/m 0 min 0 min 81 W/m 0,0 km/h (0 Bft) 98,11 %
19.12.2020 13:58 11,7 C 11,1 C 9,9 C 86 % 1012,9 hPa 0,0 l/m 0 min 0 min 74 W/m 0,0 km/h (0 Bft) 98,00 %
19.12.2020 14:00 11,7 C 11,1 C 9,9 C 86 % 1012,9 hPa 0,0 l/m 0 min 0 min 70 W/m 0,0 km/h (0 Bft) 94,74 %
19.12.2020 14:02 11,7 C 11,1 C 9,9 C 86 % 1012,9 hPa 0,0 l/m 0 min 0 min 65 W/m 0,0 km/h (0 Bft) 97,83 %
19.12.2020 14:04 11,7 C 11,1 C 9,9 C 86 % 1012,9 hPa 0,0 l/m 0 min 0 min 57 W/m 0,0 km/h (0 Bft) 98,11 %
19.12.2020 14:06 11,7 C 11,1 C 9,4 C 87 % 1012,9 hPa 0,0 l/m 0 min 0 min 53 W/m 3,2 km/h (1 Bft) 96,00 %
19.12.2020 14:08 11,7 C 11,1 C 9,4 C 87 % 1012,9 hPa 0,0 l/m 0 min 0 min 52 W/m 3,2 km/h (1 Bft) 97,37 %
19.12.2020 14:10 11,7 C 11,1 C 9,4 C 87 % 1012,9 hPa 0,0 l/m 0 min 0 min 51 W/m 0,0 km/h (0 Bft) 95,74 %
19.12.2020 14:12 11,7 C 11,1 C 9,4 C 87 % 1013,0 hPa 0,0 l/m 0 min 0 min 52 W/m 3,2 km/h (1 Bft) 95,74 %
19.12.2020 14:14 11,7 C 11,1 C 9,4 C 87 % 1012,9 hPa 0,0 l/m 0 min 0 min 49 W/m 0,0 km/h (0 Bft) 95,65 %
19.12.2020 14:16 11,7 C 11,1 C 9,4 C 87 % 1012,9 hPa 0,0 l/m 0 min 0 min 47 W/m 3,2 km/h (1 Bft) 96,23 %
19.12.2020 14:18 11,7 C 11,7 C 9,4 C 87 % 1012,9 hPa 0,0 l/m 0 min 0 min 47 W/m 0,0 km/h (0 Bft) 98,00 %
19.12.2020 14:20 11,7 C 11,7 C 9,4 C 87 % 1012,9 hPa 0,0 l/m 0 min 0 min 47 W/m 0,0 km/h (0 Bft) 97,37 %
19.12.2020 14:22 11,7 C 11,7 C 9,4 C 87 % 1012,8 hPa 0,0 l/m 0 min 0 min 43 W/m 0,0 km/h (0 Bft) 97,87 %
19.12.2020 14:24 11,7 C 11,7 C 9,4 C 87 % 1012,8 hPa 0,0 l/m 0 min 0 min 39 W/m 0,0 km/h (0 Bft) 96,23 %
19.12.2020 14:26 11,7 C 11,7 C 9,4 C 87 % 1012,8 hPa 0,0 l/m 0 min 0 min 37 W/m 3,2 km/h (1 Bft) 95,92 %
19.12.2020 14:28 11,7 C 11,7 C 9,4 C 87 % 1012,9 hPa 0,0 l/m 0 min 0 min 35 W/m 0,0 km/h (0 Bft) 97,37 %
19.12.2020 14:30 11,7 C 11,1 C 9,4 C 87 % 1012,9 hPa 0,0 l/m 0 min 0 min 35 W/m 3,2 km/h (1 Bft) 97,87 %
19.12.2020 14:32 11,8 C 11,7 C 9,4 C 86 % 1012,9 hPa 0,0 l/m 0 min 0 min 38 W/m 6,4 km/h (2 Bft) 98,11 %
19.12.2020 14:34 11,8 C 11,7 C 9,4 C 86 % 1012,9 hPa 0,0 l/m 0 min 0 min 40 W/m 0,0 km/h (0 Bft) 96,00 %
19.12.2020 14:36 11,8 C 11,7 C 9,4 C 86 % 1012,9 hPa 0,0 l/m 0 min 0 min 44 W/m 6,4 km/h (2 Bft) 97,30 %
19.12.2020 14:38 11,8 C 11,7 C 9,4 C 86 % 1012,9 hPa 0,0 l/m 0 min 0 min 46 W/m 3,2 km/h (1 Bft) 97,87 %
19.12.2020 14:40 11,8 C 11,7 C 9,4 C 86 % 1013,0 hPa 0,0 l/m 0 min 0 min 44 W/m 0,0 km/h (0 Bft) 94,34 %
19.12.2020 14:42 11,8 C 11,1 C 9,4 C 86 % 1013,0 hPa 0,0 l/m 0 min 0 min 42 W/m 3,2 km/h (1 Bft) 98,00 %
19.12.2020 14:44 11,8 C 11,1 C 9,4 C 86 % 1013,1 hPa 0,0 l/m 0 min 0 min 38 W/m 3,2 km/h (1 Bft) 94,74 %
19.12.2020 14:46 11,8 C 11,1 C 9,4 C 86 % 1013,1 hPa 0,0 l/m 0 min 0 min 35 W/m 0,0 km/h (0 Bft) 97,87 %
19.12.2020 14:48 11,7 C 11,1 C 9,4 C 86 % 1013,1 hPa 0,0 l/m 0 min 0 min 31 W/m 0,0 km/h (0 Bft) 98,08 %
19.12.2020 14:50 11,8 C 11,1 C 9,4 C 86 % 1013,1 hPa 0,0 l/m 0 min 0 min 28 W/m 0,0 km/h (0 Bft) 98,00 %
19.12.2020 14:52 11,8 C 11,1 C 9,4 C 86 % 1013,1 hPa 0,0 l/m 0 min 0 min 24 W/m 0,0 km/h (0 Bft) 94,74 %
19.12.2020 14:54 11,8 C 11,1 C 9,4 C 86 % 1013,1 hPa 0,0 l/m 0 min 0 min 18 W/m 6,4 km/h (2 Bft) 91,49 %
19.12.2020 14:56 11,8 C 11,1 C 9,4 C 86 % 1013,1 hPa 0,0 l/m 0 min 0 min 16 W/m 0,0 km/h (0 Bft) 100,00 %
19.12.2020 14:58 11,8 C 11,1 C 9,4 C 86 % 1013,1 hPa 0,0 l/m 0 min 0 min 14 W/m 0,0 km/h (0 Bft) 60,78 %
19.12.2020 15:00 11,8 C 11,1 C 9,4 C 86 % 1013,1 hPa 0,0 l/m 0 min 0 min 12 W/m 3,2 km/h (1 Bft) 100,00 %
19.12.2020 15:02 11,8 C 11,1 C 9,4 C 86 % 1013,1 hPa 0,0 l/m 0 min 0 min 12 W/m 6,4 km/h (2 Bft) 97,37 %
19.12.2020 15:04 11,8 C 11,1 C 9,4 C 85 % 1013,2 hPa 0,0 l/m 0 min 0 min 10 W/m 6,4 km/h (2 Bft) 97,87 %
19.12.2020 15:06 11,8 C 11,1 C 9,4 C 86 % 1013,1 hPa 0,0 l/m 0 min 0 min 9 W/m 0,0 km/h (0 Bft) 98,11 %
19.12.2020 15:08 11,8 C 11,1 C 9,4 C 85 % 1013,2 hPa 0,0 l/m 0 min 0 min 9 W/m 12,9 km/h (3 Bft) 98,00 %
19.12.2020 15:10 11,8 C 11,1 C 9,4 C 85 % 1013,2 hPa 0,0 l/m 0 min 0 min 9 W/m 0,0 km/h (0 Bft) 97,87 %
19.12.2020 15:12 11,8 C 11,7 C 9,4 C 85 % 1013,2 hPa 0,0 l/m 0 min 0 min 9 W/m 16,1 km/h (3 Bft) 97,30 %
19.12.2020 15:14 11,8 C 11,7 C 9,4 C 85 % 1013,2 hPa 0,0 l/m 0 min 0 min 9 W/m 16,1 km/h (3 Bft) 97,87 %
19.12.2020 15:16 11,8 C 11,7 C 9,4 C 85 % 1013,3 hPa 0,0 l/m 0 min 0 min 9 W/m 3,2 km/h (1 Bft) 97,87 %
19.12.2020 15:18 11,8 C 11,7 C 9,4 C 85 % 1013,3 hPa 0,0 l/m 0 min 0 min 10 W/m 6,4 km/h (2 Bft) 96,23 %
19.12.2020 15:20 11,8 C 11,7 C 9,4 C 85 % 1013,3 hPa 0,0 l/m 0 min 0 min 11 W/m 0,0 km/h (0 Bft) 98,00 %
19.12.2020 15:22 11,8 C 11,7 C 9,4 C 85 % 1013,4 hPa 0,0 l/m 0 min 0 min 11 W/m 19,3 km/h (3 Bft) 97,30 %
19.12.2020 15:24 11,8 C 11,7 C 9,4 C 85 % 1013,3 hPa 0,0 l/m 0 min 0 min 12 W/m 0,0 km/h (0 Bft) 97,87 %
19.12.2020 15:26 11,8 C 11,7 C 9,4 C 85 % 1013,4 hPa 0,0 l/m 0 min 0 min 12 W/m 0,0 km/h (0 Bft) 98,11 %
19.12.2020 15:28 11,8 C 11,7 C 9,4 C 84 % 1013,4 hPa 0,0 l/m 0 min 0 min 11 W/m 0,0 km/h (0 Bft) 98,00 %
19.12.2020 15:30 11,8 C 11,7 C 9,4 C 84 % 1013,4 hPa 0,0 l/m 0 min 0 min 10 W/m 3,2 km/h (1 Bft) 97,37 %
19.12.2020 15:32 11,8 C 11,7 C 9,4 C 84 % 1013,4 hPa 0,0 l/m 0 min 0 min 9 W/m 16,1 km/h (3 Bft) 97,87 %
19.12.2020 15:34 11,8 C 11,7 C 9,4 C 84 % 1013,4 hPa 0,0 l/m 0 min 0 min 9 W/m 6,4 km/h (2 Bft) 98,11 %
19.12.2020 15:36 11,8 C 11,7 C 9,4 C 84 % 1013,4 hPa 0,0 l/m 0 min 0 min 8 W/m 16,1 km/h (3 Bft) 97,96 %
19.12.2020 15:38 11,9 C 11,1 C 9,4 C 84 % 1013,4 hPa 0,0 l/m 0 min 0 min 6 W/m 6,4 km/h (2 Bft) 97,37 %
19.12.2020 15:40 11,9 C 11,7 C 9,4 C 84 % 1013,4 hPa 0,0 l/m 0 min 0 min 5 W/m 12,9 km/h (3 Bft) 95,74 %
19.12.2020 15:42 11,9 C 11,1 C 9,4 C 84 % 1013,4 hPa 0,0 l/m 0 min 0 min 5 W/m 6,4 km/h (2 Bft) 98,11 %
19.12.2020 15:45 11,9 C 11,1 C 9,4 C 84 % 1013,4 hPa 0,0 l/m 0 min 0 min 2 W/m 6,4 km/h (2 Bft) 95,71 %
19.12.2020 15:46 11,9 C 11,1 C 9,4 C 84 % 1013,4 hPa 0,0 l/m 0 min 0 min 5 W/m 6,4 km/h (2 Bft) 95,83 %
19.12.2020 15:48 11,9 C 11,1 C 9,4 C 84 % 1013,5 hPa 0,0 l/m 0 min 0 min 1 W/m 6,4 km/h (2 Bft) 97,83 %
19.12.2020 15:50 11,9 C 11,1 C 9,4 C 84 % 1013,5 hPa 0,0 l/m 0 min 0 min 0 W/m 16,1 km/h (3 Bft) 97,87 %
19.12.2020 15:52 11,9 C 11,1 C 9,4 C 84 % 1013,5 hPa 0,0 l/m 0 min 0 min 0 W/m 3,2 km/h (1 Bft) 100,00 %
19.12.2020 15:54 11,8 C 11,1 C 8,8 C 84 % 1013,6 hPa 0,0 l/m 0 min 0 min 0 W/m 3,2 km/h (1 Bft) 100,00 %
19.12.2020 15:56 11,8 C 11,1 C 9,4 C 84 % 1013,6 hPa 0,0 l/m 0 min 0 min 0 W/m 6,4 km/h (2 Bft) 97,87 %
19.12.2020 15:58 11,8 C 11,1 C 8,8 C 84 % 1013,6 hPa 0,0 l/m 0 min 0 min 3 W/m 12,9 km/h (3 Bft) 100,00 %
19.12.2020 16:00 11,8 C 11,1 C 8,8 C 84 % 1013,5 hPa 0,0 l/m 0 min 0 min 5 W/m 0,0 km/h (0 Bft) 100,00 %
19.12.2020 16:02 11,8 C 11,1 C 8,8 C 84 % 1013,6 hPa 0,0 l/m 0 min 0 min 5 W/m 3,2 km/h (1 Bft) 97,87 %
19.12.2020 16:04 11,8 C 11,1 C 8,8 C 84 % 1013,5 hPa 0,0 l/m 0 min 0 min 5 W/m 3,2 km/h (1 Bft) 100,00 %
19.12.2020 16:06 11,8 C 11,1 C 8,8 C 84 % 1013,5 hPa 0,0 l/m 0 min 0 min 7 W/m 3,2 km/h (1 Bft) 97,87 %
19.12.2020 16:08 11,8 C 11,1 C 8,8 C 84 % 1013,5 hPa 0,0 l/m 0 min 0 min 9 W/m 12,9 km/h (3 Bft) 100,00 %
19.12.2020 16:10 11,8 C 11,1 C 8,8 C 84 % 1013,6 hPa 0,0 l/m 0 min 0 min 8 W/m 6,4 km/h (2 Bft) 100,00 %
19.12.2020 16:12 11,8 C 11,1 C 8,8 C 84 % 1013,5 hPa 0,0 l/m 0 min 0 min 7 W/m 3,2 km/h (1 Bft) 100,00 %
19.12.2020 16:14 11,8 C 11,1 C 8,8 C 84 % 1013,6 hPa 0,0 l/m 0 min 0 min 9 W/m 3,2 km/h (1 Bft) 100,00 %
19.12.2020 16:16 11,8 C 11,1 C 8,8 C 84 % 1013,6 hPa 0,0 l/m 0 min 0 min 8 W/m 6,4 km/h (2 Bft) 100,00 %
19.12.2020 16:18 11,8 C 11,1 C 8,8 C 84 % 1013,6 hPa 0,0 l/m 0 min 0 min 5 W/m 3,2 km/h (1 Bft) 100,00 %
19.12.2020 16:20 11,7 C 11,1 C 8,8 C 85 % 1013,6 hPa 0,0 l/m 0 min 0 min 5 W/m 0,0 km/h (0 Bft) 100,00 %
19.12.2020 16:22 11,7 C 11,1 C 8,8 C 85 % 1013,6 hPa 0,0 l/m 0 min 0 min 5 W/m 0,0 km/h (0 Bft) 100,00 %
19.12.2020 16:24 11,7 C 11,1 C 8,8 C 85 % 1013,7 hPa 0,0 l/m 0 min 0 min 5 W/m 3,2 km/h (1 Bft) 100,00 %
19.12.2020 16:26 11,7 C 11,1 C 8,8 C 85 % 1013,6 hPa 0,0 l/m 0 min 0 min 5 W/m 0,0 km/h (0 Bft) 100,00 %
19.12.2020 16:28 11,7 C 11,1 C 8,8 C 85 % 1013,6 hPa 0,0 l/m 0 min 0 min 2 W/m 3,2 km/h (1 Bft) 100,00 %
19.12.2020 16:30 11,6 C 11,1 C 8,8 C 85 % 1013,6 hPa 0,0 l/m 0 min 0 min 0 W/m 3,2 km/h (1 Bft) 100,00 %
19.12.2020 16:32 11,6 C 11,1 C 8,8 C 85 % 1013,6 hPa 0,0 l/m 0 min 0 min 0 W/m 0,0 km/h (0 Bft) 100,00 %
19.12.2020 16:34 11,6 C 11,1 C 8,8 C 85 % 1013,6 hPa 0,0 l/m 0 min 0 min 0 W/m 0,0 km/h (0 Bft) 100,00 %
19.12.2020 16:36 11,6 C 11,1 C 8,8 C 85 % 1013,7 hPa 0,0 l/m 0 min 0 min 0 W/m 0,0 km/h (0 Bft) 100,00 %
19.12.2020 16:38 11,6 C 11,1 C 8,8 C 85 % 1013,7 hPa 0,0 l/m 0 min 0 min 0 W/m 0,0 km/h (0 Bft) 100,00 %
19.12.2020 16:40 11,6 C 11,1 C 8,8 C 85 % 1013,7 hPa 0,0 l/m 0 min 0 min 0 W/m 0,0 km/h (0 Bft) 100,00 %
19.12.2020 16:42 11,6 C 11,1 C 8,8 C 85 % 1013,7 hPa 0,0 l/m 0 min 0 min 0 W/m 0,0 km/h (0 Bft) 100,00 %
19.12.2020 16:44 11,6 C 11,1 C 8,8 C 85 % 1013,8 hPa 0,0 l/m 0 min 0 min 0 W/m 0,0 km/h (0 Bft) 100,00 %
19.12.2020 16:46 11,5 C 11,1 C 8,8 C 85 % 1013,8 hPa 0,0 l/m 0 min 0 min 0 W/m 0,0 km/h (0 Bft) 100,00 %
19.12.2020 16:48 11,5 C 11,1 C 8,8 C 85 % 1013,8 hPa 0,0 l/m 0 min 0 min 0 W/m 0,0 km/h (0 Bft) 100,00 %
19.12.2020 16:50 11,5 C 10,6 C 8,8 C 85 % 1013,8 hPa 0,0 l/m 0 min 0 min 0 W/m 3,2 km/h (1 Bft) 100,00 %
19.12.2020 16:52 11,5 C 11,1 C 8,8 C 85 % 1013,8 hPa 0,0 l/m 0 min 0 min 0 W/m 0,0 km/h (0 Bft) 100,00 %
19.12.2020 16:54 11,5 C 10,6 C 8,8 C 85 % 1013,8 hPa 0,0 l/m 0 min 0 min 0 W/m 3,2 km/h (1 Bft) 97,87 %
19.12.2020 16:56 11,5 C 10,6 C 8,8 C 85 % 1013,8 hPa 0,0 l/m 0 min 0 min 0 W/m 3,2 km/h (1 Bft) 97,83 %
19.12.2020 16:58 11,5 C 10,6 C 8,8 C 85 % 1013,8 hPa 0,0 l/m 0 min 0 min 0 W/m 0,0 km/h (0 Bft) 97,87 %
19.12.2020 17:00 11,5 C 10,6 C 8,8 C 85 % 1013,9 hPa 0,0 l/m 0 min 0 min 0 W/m 0,0 km/h (0 Bft) 95,74 %
19.12.2020 17:02 11,5 C 10,6 C 8,3 C 85 % 1013,9 hPa 0,0 l/m 0 min 0 min 0 W/m 0,0 km/h (0 Bft) 97,87 %
19.12.2020 17:04 11,5 C 10,6 C 8,3 C 85 % 1014,0 hPa 0,0 l/m 0 min 0 min 0 W/m 3,2 km/h (1 Bft) 95,74 %
19.12.2020 17:06 11,4 C 10,6 C 8,8 C 85 % 1014,0 hPa 0,0 l/m 0 min 0 min 0 W/m 0,0 km/h (0 Bft) 97,87 %
19.12.2020 17:08 11,4 C 10,6 C 8,8 C 85 % 1014,0 hPa 0,0 l/m 0 min 0 min 0 W/m 6,4 km/h (2 Bft) 97,83 %
19.12.2020 17:10 11,4 C 10,6 C 8,3 C 85 % 1014,0 hPa 0,0 l/m 0 min 0 min 0 W/m 0,0 km/h (0 Bft) 97,87 %
19.12.2020 17:12 11,4 C 11,1 C 8,8 C 85 % 1014,0 hPa 0,0 l/m 0 min 0 min 0 W/m 3,2 km/h (1 Bft) 97,87 %
19.12.2020 17:14 11,4 C 11,1 C 8,8 C 85 % 1014,0 hPa 0,0 l/m 0 min 0 min 0 W/m 3,2 km/h (1 Bft) 97,87 %
19.12.2020 17:16 11,4 C 10,6 C 8,8 C 85 % 1014,1 hPa 0,0 l/m 0 min 0 min 0 W/m 0,0 km/h (0 Bft) 93,62 %
19.12.2020 17:18 11,4 C 10,6 C 8,3 C 85 % 1014,1 hPa 0,0 l/m 0 min 0 min 0 W/m 0,0 km/h (0 Bft) 97,87 %
19.12.2020 17:20 11,4 C 10,6 C 8,3 C 86 % 1014,1 hPa 0,0 l/m 0 min 0 min 0 W/m 0,0 km/h (0 Bft) 97,83 %
19.12.2020 17:22 11,4 C 10,6 C 8,3 C 86 % 1014,1 hPa 0,0 l/m 0 min 0 min 0 W/m 0,0 km/h (0 Bft) 97,87 %
19.12.2020 17:24 11,4 C 10,6 C 8,3 C 86 % 1014,2 hPa 0,0 l/m 0 min 0 min 0 W/m 0,0 km/h (0 Bft) 68,09 %
19.12.2020 17:26 11,4 C 10,6 C 8,3 C 86 % 1014,2 hPa 0,0 l/m 0 min 0 min 0 W/m 0,0 km/h (0 Bft) 81,40 %
19.12.2020 17:28 11,4 C 10,6 C 8,3 C 86 % 1014,2 hPa 0,0 l/m 0 min 0 min 0 W/m 3,2 km/h (1 Bft) 97,87 %
19.12.2020 17:30 11,4 C 10,6 C 8,3 C 86 % 1014,3 hPa 0,0 l/m 0 min 0 min 0 W/m 3,2 km/h (1 Bft) 97,87 %
19.12.2020 17:32 11,4 C 10,6 C 8,3 C 86 % 1014,3 hPa 0,0 l/m 0 min 0 min 0 W/m 0,0 km/h (0 Bft) 95,65 %
19.12.2020 17:34 11,3 C 10,6 C 8,3 C 86 % 1014,3 hPa 0,0 l/m 0 min 0 min 0 W/m 0,0 km/h (0 Bft) 93,62 %
19.12.2020 17:36 11,3 C 10,6 C 8,3 C 86 % 1014,2 hPa 0,0 l/m 0 min 0 min 0 W/m 3,2 km/h (1 Bft) 95,74 %
19.12.2020 17:38 11,3 C 10,6 C 8,3 C 86 % 1014,3 hPa 0,0 l/m 0 min 0 min 0 W/m 0,0 km/h (0 Bft) 97,87 %
19.12.2020 17:40 11,3 C 10,6 C 8,3 C 86 % 1014,3 hPa 0,0 l/m 0 min 0 min 0 W/m 0,0 km/h (0 Bft) 100,00 %
19.12.2020 17:42 11,3 C 10,6 C 8,3 C 86 % 1014,3 hPa 0,0 l/m 0 min 0 min 0 W/m 0,0 km/h (0 Bft) 100,00 %
19.12.2020 17:44 11,3 C 10,6 C 8,3 C 86 % 1014,4 hPa 0,0 l/m 0 min 0 min 0 W/m 0,0 km/h (0 Bft) 100,00 %
19.12.2020 17:46 11,3 C 10,6 C 8,3 C 86 % 1014,4 hPa 0,0 l/m 0 min 0 min 0 W/m 0,0 km/h (0 Bft) 100,00 %
19.12.2020 17:48 11,3 C 10,6 C 8,3 C 86 % 1014,4 hPa 0,0 l/m 0 min 0 min 0 W/m 0,0 km/h (0 Bft) 97,87 %
19.12.2020 17:50 11,2 C 10,6 C 8,3 C 86 % 1014,4 hPa 0,0 l/m 0 min 0 min 0 W/m 0,0 km/h (0 Bft) 97,87 %
19.12.2020 17:52 11,2 C 10,6 C 8,3 C 86 % 1014,4 hPa 0,0 l/m 0 min 0 min 0 W/m 0,0 km/h (0 Bft) 97,87 %
19.12.2020 17:54 11,2 C 10,6 C 8,3 C 86 % 1014,4 hPa 0,0 l/m 0 min 0 min 0 W/m 0,0 km/h (0 Bft) 97,83 %
19.12.2020 17:56 11,1 C 10,0 C 8,3 C 86 % 1014,4 hPa 0,0 l/m 0 min 0 min 0 W/m 0,0 km/h (0 Bft) 97,87 %
19.12.2020 17:58 11,1 C 10,0 C 7,7 C 87 % 1014,4 hPa 0,0 l/m 0 min 0 min 0 W/m 0,0 km/h (0 Bft) 97,87 %
19.12.2020 18:00 11,1 C 10,0 C 7,7 C 87 % 1014,4 hPa 0,0 l/m 0 min 0 min 0 W/m 0,0 km/h (0 Bft) 95,74 %
19.12.2020 18:02 11,1 C 10,0 C 7,7 C 87 % 1014,4 hPa 0,0 l/m 0 min 0 min 0 W/m 0,0 km/h (0 Bft) 95,74 %
19.12.2020 18:04 11,1 C 10,0 C 7,7 C 87 % 1014,5 hPa 0,0 l/m 0 min 0 min 0 W/m 0,0 km/h (0 Bft) 95,74 %
19.12.2020 18:08 11,0 C 10,0 C 7,7 C 87 % 1014,6 hPa 0,0 l/m 0 min 0 min 0 W/m 0,0 km/h (0 Bft) 93,55 %
19.12.2020 18:10 11,0 C 10,0 C 7,7 C 87 % 1014,6 hPa 0,0 l/m 0 min 0 min 0 W/m 0,0 km/h (0 Bft) 95,74 %
19.12.2020 18:12 11,0 C 10,0 C 7,7 C 87 % 1014,6 hPa 0,0 l/m 0 min 0 min 0 W/m 0,0 km/h (0 Bft) 95,74 %
19.12.2020 18:14 11,0 C 10,0 C 7,7 C 87 % 1014,6 hPa 0,0 l/m 0 min 0 min 0 W/m 0,0 km/h (0 Bft) 95,74 %
19.12.2020 18:16 10,9 C 10,0 C 7,7 C 87 % 1014,6 hPa 0,0 l/m 0 min 0 min 0 W/m 0,0 km/h (0 Bft) 95,74 %
19.12.2020 18:18 10,9 C 10,0 C 7,7 C 87 % 1014,7 hPa 0,0 l/m 0 min 0 min 0 W/m 0,0 km/h (0 Bft) 95,65 %
19.12.2020 18:20 10,9 C 10,0 C 7,7 C 88 % 1014,7 hPa 0,0 l/m 0 min 0 min 0 W/m 0,0 km/h (0 Bft) 95,74 %
19.12.2020 18:22 10,9 C 10,0 C 7,7 C 88 % 1014,7 hPa 0,0 l/m 0 min 0 min 0 W/m 0,0 km/h (0 Bft) 95,74 %
19.12.2020 18:24 10,9 C 10,0 C 7,7 C 88 % 1014,7 hPa 0,0 l/m 0 min 0 min 0 W/m 0,0 km/h (0 Bft) 95,74 %
19.12.2020 18:26 10,9 C 10,0 C 7,7 C 88 % 1014,7 hPa 0,0 l/m 0 min 0 min 0 W/m 0,0 km/h (0 Bft) 95,74 %
19.12.2020 18:28 10,9 C 10,0 C 7,7 C 88 % 1014,8 hPa 0,0 l/m 0 min 2 min 0 W/m 0,0 km/h (0 Bft) 95,74 %
19.12.2020 18:30 10,8 C 10,0 C 7,7 C 88 % 1014,8 hPa 0,0 l/m 0 min 0 min 0 W/m 0,0 km/h (0 Bft) 95,65 %
19.12.2020 18:32 10,9 C 10,0 C 7,7 C 88 % 1014,8 hPa 0,0 l/m 0 min 0 min 0 W/m 3,2 km/h (1 Bft) 93,62 %
19.12.2020 18:34 10,8 C 10,0 C 7,7 C 88 % 1014,9 hPa 0,0 l/m 0 min 0 min 0 W/m 0,0 km/h (0 Bft) 95,74 %
19.12.2020 18:36 10,8 C 10,0 C 7,7 C 88 % 1014,9 hPa 0,0 l/m 0 min 0 min 0 W/m 0,0 km/h (0 Bft) 97,87 %
19.12.2020 18:38 10,8 C 10,0 C 7,7 C 88 % 1014,9 hPa 0,0 l/m 0 min 0 min 0 W/m 0,0 km/h (0 Bft) 97,87 %
19.12.2020 18:40 10,8 C 10,0 C 7,7 C 88 % 1014,8 hPa 0,0 l/m 0 min 0 min 0 W/m 3,2 km/h (1 Bft) 97,87 %
19.12.2020 18:42 10,8 C 10,0 C 7,7 C 88 % 1014,9 hPa 0,0 l/m 0 min 0 min 0 W/m 0,0 km/h (0 Bft) 97,83 %
19.12.2020 18:44 10,8 C 10,0 C 7,7 C 88 % 1014,9 hPa 0,0 l/m 0 min 0 min 0 W/m 0,0 km/h (0 Bft) 97,87 %
19.12.2020 18:46 10,8 C 10,0 C 7,7 C 88 % 1014,9 hPa 0,0 l/m 0 min 0 min 0 W/m 0,0 km/h (0 Bft) 97,87 %
19.12.2020 18:48 10,7 C 10,0 C 7,7 C 88 % 1014,9 hPa 0,0 l/m 0 min 0 min 0 W/m 0,0 km/h (0 Bft) 97,87 %
19.12.2020 18:50 10,7 C 10,0 C 7,7 C 88 % 1015,0 hPa 0,0 l/m 0 min 0 min 0 W/m 3,2 km/h (1 Bft) 97,87 %
19.12.2020 18:52 10,7 C 10,0 C 7,7 C 88 % 1015,0 hPa 0,0 l/m 0 min 0 min 0 W/m 0,0 km/h (0 Bft) 95,65 %
19.12.2020 18:54 10,7 C 10,0 C 7,7 C 88 % 1015,0 hPa 0,0 l/m 0 min 0 min 0 W/m 0,0 km/h (0 Bft) 97,87 %
19.12.2020 18:56 10,7 C 10,0 C 7,7 C 88 % 1014,9 hPa 0,0 l/m 0 min 0 min 0 W/m 0,0 km/h (0 Bft) 97,87 %
19.12.2020 18:58 10,7 C 10,0 C 7,7 C 88 % 1015,0 hPa 0,0 l/m 0 min 0 min 0 W/m 0,0 km/h (0 Bft) 95,74 %
19.12.2020 19:00 10,7 C 10,0 C 7,7 C 89 % 1015,0 hPa 0,0 l/m 0 min 0 min 0 W/m 3,2 km/h (1 Bft) 97,87 %
19.12.2020 19:02 10,6 C 10,0 C 7,7 C 89 % 1015,0 hPa 0,0 l/m 0 min 0 min 0 W/m 3,2 km/h (1 Bft) 97,87 %
19.12.2020 19:04 10,6 C 10,0 C 7,7 C 89 % 1014,9 hPa 0,0 l/m 0 min 0 min 0 W/m 0,0 km/h (0 Bft) 97,83 %
19.12.2020 19:06 10,6 C 10,0 C 7,7 C 89 % 1014,9 hPa 0,0 l/m 0 min 0 min 0 W/m 0,0 km/h (0 Bft) 93,62 %
19.12.2020 19:08 10,6 C 10,0 C 7,7 C 89 % 1015,0 hPa 0,0 l/m 0 min 0 min 0 W/m 0,0 km/h (0 Bft) 97,87 %
19.12.2020 19:10 10,6 C 10,0 C 7,7 C 89 % 1014,9 hPa 0,0 l/m 0 min 0 min 0 W/m 0,0 km/h (0 Bft) 97,87 %
19.12.2020 19:12 10,6 C 10,0 C 7,7 C 89 % 1014,9 hPa 0,0 l/m 0 min 0 min 0 W/m 0,0 km/h (0 Bft) 97,87 %
19.12.2020 19:14 10,6 C 10,0 C 7,7 C 89 % 1014,9 hPa 0,0 l/m 0 min 0 min 0 W/m 0,0 km/h (0 Bft) 97,87 %
19.12.2020 19:16 10,6 C 10,0 C 7,7 C 89 % 1014,9 hPa 0,0 l/m 0 min 0 min 0 W/m 0,0 km/h (0 Bft) 97,83 %
19.12.2020 19:18 10,6 C 10,0 C 7,7 C 89 % 1014,9 hPa 0,0 l/m 0 min 0 min 0 W/m 3,2 km/h (1 Bft) 100,00 %
19.12.2020 19:20 10,6 C 10,0 C 7,7 C 89 % 1014,9 hPa 0,2 l/m 0 min 0 min 0 W/m 29,0 km/h (5 Bft) 100,00 %
19.12.2020 19:22 10,6 C 10,6 C 8,3 C 89 % 1014,9 hPa 0,0 l/m 0 min 0 min 0 W/m 32,2 km/h (5 Bft) 100,00 %
19.12.2020 19:24 10,8 C 10,6 C 8,3 C 89 % 1014,9 hPa 0,0 l/m 0 min 0 min 0 W/m 6,4 km/h (2 Bft) 97,87 %
19.12.2020 19:26 10,8 C 10,6 C 8,3 C 90 % 1014,9 hPa 0,0 l/m 0 min 0 min 0 W/m 3,2 km/h (1 Bft) 100,00 %
19.12.2020 19:28 10,8 C 10,6 C 8,3 C 90 % 1014,9 hPa 0,0 l/m 0 min 0 min 0 W/m 3,2 km/h (1 Bft) 100,00 %
19.12.2020 19:30 10,9 C 10,6 C 8,3 C 90 % 1014,9 hPa 0,0 l/m 0 min 0 min 0 W/m 12,9 km/h (3 Bft) 97,87 %
19.12.2020 19:32 10,9 C 10,6 C 8,3 C 90 % 1014,9 hPa 0,0 l/m 0 min 0 min 0 W/m 3,2 km/h (1 Bft) 97,87 %
19.12.2020 19:34 10,9 C 10,6 C 8,3 C 90 % 1014,9 hPa 0,0 l/m 0 min 0 min 0 W/m 19,3 km/h (3 Bft) 57,45 %
19.12.2020 19:36 11,0 C 10,6 C 8,3 C 90 % 1014,9 hPa 0,0 l/m 0 min 0 min 0 W/m 16,1 km/h (3 Bft) 97,87 %
19.12.2020 19:38 11,0 C 10,6 C 8,3 C 90 % 1015,0 hPa 0,0 l/m 0 min 0 min 0 W/m 3,2 km/h (1 Bft) 97,87 %
19.12.2020 19:40 11,0 C 10,6 C 8,3 C 90 % 1015,0 hPa 0,0 l/m 0 min 0 min 0 W/m 6,4 km/h (2 Bft) 97,83 %
19.12.2020 19:42 11,0 C 10,6 C 8,3 C 90 % 1015,0 hPa 0,0 l/m 0 min 0 min 0 W/m 0,0 km/h (0 Bft) 97,87 %
19.12.2020 19:44 11,0 C 10,6 C 8,3 C 90 % 1015,1 hPa 0,0 l/m 0 min 0 min 0 W/m 3,2 km/h (1 Bft) 97,87 %
19.12.2020 19:46 11,0 C 10,6 C 8,3 C 90 % 1015,1 hPa 0,0 l/m 0 min 0 min 0 W/m 3,2 km/h (1 Bft) 97,87 %
19.12.2020 19:48 11,0 C 10,6 C 8,3 C 90 % 1015,1 hPa 0,0 l/m 0 min 0 min 0 W/m 3,2 km/h (1 Bft) 97,83 %
19.12.2020 19:50 11,0 C 10,6 C 8,3 C 90 % 1015,2 hPa 0,0 l/m 0 min 0 min 0 W/m 16,1 km/h (3 Bft) 97,87 %
19.12.2020 19:52 11,0 C 10,6 C 8,3 C 90 % 1015,1 hPa 0,0 l/m 0 min 0 min 0 W/m 3,2 km/h (1 Bft) 97,87 %
19.12.2020 19:54 11,0 C 10,6 C 8,3 C 90 % 1015,2 hPa 0,0 l/m 0 min 0 min 0 W/m 3,2 km/h (1 Bft) 93,62 %
19.12.2020 19:56 11,0 C 10,6 C 7,7 C 90 % 1015,3 hPa 0,0 l/m 0 min 0 min 0 W/m 0,0 km/h (0 Bft) 97,87 %
19.12.2020 19:58 11,0 C 10,0 C 7,7 C 90 % 1015,3 hPa 0,0 l/m 0 min 0 min 0 W/m 0,0 km/h (0 Bft) 97,87 %
19.12.2020 20:00 11,0 C 10,0 C 7,7 C 90 % 1015,4 hPa 0,0 l/m 0 min 0 min 0 W/m 3,2 km/h (1 Bft) 97,87 %
19.12.2020 20:02 11,0 C 10,6 C 8,3 C 90 % 1015,4 hPa 0,0 l/m 0 min 0 min 0 W/m 9,7 km/h (2 Bft) 97,83 %
19.12.2020 20:04 11,0 C 10,6 C 8,3 C 90 % 1015,4 hPa 0,0 l/m 0 min 0 min 0 W/m 3,2 km/h (1 Bft) 97,87 %
19.12.2020 20:06 11,0 C 10,0 C 8,3 C 90 % 1015,4 hPa 0,0 l/m 0 min 0 min 0 W/m 6,4 km/h (2 Bft) 95,74 %
19.12.2020 20:08 11,0 C 10,0 C 8,3 C 90 % 1015,4 hPa 0,0 l/m 0 min 0 min 0 W/m 6,4 km/h (2 Bft) 97,87 %
19.12.2020 20:10 11,0 C 10,0 C 8,3 C 90 % 1015,3 hPa 0,0 l/m 0 min 0 min 0 W/m 3,2 km/h (1 Bft) 95,74 %
19.12.2020 20:12 11,0 C 10,0 C 8,3 C 90 % 1015,4 hPa 0,0 l/m 0 min 0 min 0 W/m 0,0 km/h (0 Bft) 97,87 %
19.12.2020 20:14 10,9 C 10,0 C 7,7 C 90 % 1015,4 hPa 0,0 l/m 0 min 0 min 0 W/m 0,0 km/h (0 Bft) 97,83 %
19.12.2020 20:16 10,9 C 10,0 C 7,7 C 90 % 1015,5 hPa 0,0 l/m 0 min 0 min 0 W/m 3,2 km/h (1 Bft) 95,74 %
19.12.2020 20:18 10,9 C 10,0 C 7,7 C 90 % 1015,5 hPa 0,0 l/m 0 min 0 min 0 W/m 6,4 km/h (2 Bft) 97,87 %
19.12.2020 20:20 10,9 C 10,0 C 7,7 C 90 % 1015,5 hPa 0,0 l/m 0 min 0 min 0 W/m 0,0 km/h (0 Bft) 97,87 %
19.12.2020 20:22 10,9 C 10,0 C 7,7 C 90 % 1015,5 hPa 0,0 l/m 0 min 0 min 0 W/m 3,2 km/h (1 Bft) 100,00 %
19.12.2020 20:24 10,9 C 10,0 C 8,3 C 91 % 1015,6 hPa 0,0 l/m 0 min 0 min 0 W/m 3,2 km/h (1 Bft) 97,87 %
19.12.2020 20:26 10,9 C 10,0 C 8,3 C 91 % 1015,6 hPa 0,0 l/m 0 min 0 min 0 W/m 0,0 km/h (0 Bft) 97,83 %
19.12.2020 20:28 10,9 C 10,0 C 7,7 C 91 % 1015,6 hPa 0,0 l/m 0 min 0 min 0 W/m 0,0 km/h (0 Bft) 95,74 %
19.12.2020 20:30 10,9 C 10,0 C 7,7 C 91 % 1015,7 hPa 0,0 l/m 0 min 0 min 0 W/m 0,0 km/h (0 Bft) 95,74 %
19.12.2020 20:32 10,9 C 10,0 C 7,7 C 91 % 1015,7 hPa 0,0 l/m 0 min 0 min 0 W/m 0,0 km/h (0 Bft) 97,87 %
19.12.2020 20:34 10,9 C 10,0 C 7,7 C 91 % 1015,7 hPa 0,0 l/m 0 min 0 min 0 W/m 0,0 km/h (0 Bft) 97,87 %
19.12.2020 20:36 10,9 C 10,0 C 7,7 C 91 % 1015,7 hPa 0,0 l/m 0 min 0 min 0 W/m 6,4 km/h (2 Bft) 97,87 %
19.12.2020 20:38 10,8 C 10,0 C 7,7 C 91 % 1015,7 hPa 0,0 l/m 0 min 0 min 0 W/m 3,2 km/h (1 Bft) 97,83 %
19.12.2020 20:40 10,8 C 10,0 C 7,7 C 91 % 1015,7 hPa 0,0 l/m 0 min 0 min 0 W/m 0,0 km/h (0 Bft) 98,15 %
19.12.2020 20:42 10,8 C 10,0 C 7,7 C 91 % 1015,7 hPa 0,0 l/m 0 min 0 min 0 W/m 0,0 km/h (0 Bft) 97,87 %
19.12.2020 20:44 10,8 C 10,0 C 7,7 C 91 % 1015,8 hPa 0,0 l/m 0 min 0 min 0 W/m 0,0 km/h (0 Bft) 97,87 %
19.12.2020 20:46 10,8 C 10,0 C 7,7 C 91 % 1015,7 hPa 0,0 l/m 0 min 0 min 0 W/m 3,2 km/h (1 Bft) 95,74 %
19.12.2020 20:48 10,8 C 10,0 C 7,7 C 91 % 1015,7 hPa 0,0 l/m 0 min 0 min 0 W/m 0,0 km/h (0 Bft) 97,87 %
19.12.2020 20:50 10,8 C 10,0 C 7,7 C 91 % 1015,7 hPa 0,0 l/m 0 min 0 min 0 W/m 0,0 km/h (0 Bft) 100,00 %
19.12.2020 20:52 10,8 C 10,0 C 7,7 C 91 % 1015,7 hPa 0,0 l/m 0 min 0 min 0 W/m 0,0 km/h (0 Bft) 95,74 %
19.12.2020 20:54 10,8 C 10,0 C 8,3 C 91 % 1015,7 hPa 0,0 l/m 0 min 0 min 0 W/m 0,0 km/h (0 Bft) 97,87 %
19.12.2020 20:56 10,8 C 10,0 C 7,7 C 91 % 1015,7 hPa 0,0 l/m 0 min 0 min 0 W/m 0,0 km/h (0 Bft) 95,74 %
19.12.2020 20:58 10,8 C 10,0 C 7,7 C 91 % 1015,7 hPa 0,0 l/m 0 min 0 min 0 W/m 3,2 km/h (1 Bft) 97,87 %
19.12.2020 21:00 10,8 C 10,0 C 7,7 C 91 % 1015,7 hPa 0,0 l/m 0 min 0 min 0 W/m 0,0 km/h (0 Bft) 97,87 %
19.12.2020 21:02 10,8 C 10,0 C 7,7 C 91 % 1015,7 hPa 0,0 l/m 0 min 0 min 0 W/m 0,0 km/h (0 Bft) 97,92 %
19.12.2020 21:04 10,8 C 10,0 C 7,7 C 91 % 1015,7 hPa 0,0 l/m 0 min 0 min 0 W/m 0,0 km/h (0 Bft) 97,62 %
19.12.2020 21:06 10,8 C 10,0 C 7,7 C 91 % 1015,7 hPa 0,0 l/m 0 min 0 min 0 W/m 0,0 km/h (0 Bft) 95,74 %
19.12.2020 21:08 10,8 C 10,0 C 7,7 C 91 % 1015,6 hPa 0,0 l/m 0 min 0 min 0 W/m 0,0 km/h (0 Bft) 97,87 %
19.12.2020 21:10 10,7 C 10,0 C 7,7 C 91 % 1015,7 hPa 0,0 l/m 0 min 0 min 0 W/m 0,0 km/h (0 Bft) 97,87 %
19.12.2020 21:12 10,7 C 10,0 C 7,7 C 91 % 1015,7 hPa 0,0 l/m 0 min 0 min 0 W/m 0,0 km/h (0 Bft) 97,83 %
19.12.2020 21:14 10,6 C 10,0 C 7,7 C 91 % 1015,7 hPa 0,0 l/m 0 min 0 min 0 W/m 3,2 km/h (1 Bft) 97,87 %
19.12.2020 21:16 10,6 C 10,0 C 7,7 C 91 % 1015,7 hPa 0,0 l/m 0 min 0 min 0 W/m 16,1 km/h (3 Bft) 97,87 %
19.12.2020 21:18 10,6 C 9,4 C 7,7 C 91 % 1015,8 hPa 0,0 l/m 0 min 0 min 0 W/m 0,0 km/h (0 Bft) 97,87 %
19.12.2020 21:20 10,6 C 9,4 C 7,7 C 91 % 1015,7 hPa 0,0 l/m 0 min 0 min 0 W/m 0,0 km/h (0 Bft) 100,00 %
19.12.2020 21:22 10,5 C 9,4 C 7,2 C 91 % 1015,7 hPa 0,0 l/m 0 min 0 min 0 W/m 0,0 km/h (0 Bft) 100,00 %
19.12.2020 21:24 10,5 C 9,4 C 7,2 C 91 % 1015,8 hPa 0,0 l/m 0 min 0 min 0 W/m 0,0 km/h (0 Bft) 100,00 %
19.12.2020 21:26 10,5 C 9,4 C 7,2 C 91 % 1015,7 hPa 0,0 l/m 0 min 0 min 0 W/m 0,0 km/h (0 Bft) 100,00 %
19.12.2020 21:28 10,5 C 9,4 C 7,2 C 91 % 1015,6 hPa 0,0 l/m 0 min 0 min 0 W/m 0,0 km/h (0 Bft) 100,00 %
19.12.2020 21:30 10,4 C 9,4 C 7,2 C 91 % 1015,6 hPa 0,0 l/m 0 min 0 min 0 W/m 0,0 km/h (0 Bft) 100,00 %
19.12.2020 21:32 10,4 C 9,4 C 7,2 C 91 % 1015,6 hPa 0,0 l/m 0 min 0 min 0 W/m 3,2 km/h (1 Bft) 100,00 %
19.12.2020 21:34 10,4 C 9,4 C 7,2 C 91 % 1015,6 hPa 0,0 l/m 0 min 0 min 0 W/m 0,0 km/h (0 Bft) 100,00 %
19.12.2020 21:36 10,4 C 9,4 C 7,7 C 91 % 1015,7 hPa 0,0 l/m 0 min 0 min 0 W/m 0,0 km/h (0 Bft) 100,00 %
19.12.2020 21:38 10,4 C 10,0 C 7,7 C 92 % 1015,6 hPa 0,0 l/m 0 min 0 min 0 W/m 0,0 km/h (0 Bft) 100,00 %
19.12.2020 21:40 10,4 C 10,0 C 7,7 C 92 % 1015,6 hPa 0,0 l/m 0 min 0 min 0 W/m 0,0 km/h (0 Bft) 100,00 %
19.12.2020 21:42 10,4 C 10,0 C 7,7 C 92 % 1015,6 hPa 0,0 l/m 0 min 0 min 0 W/m 0,0 km/h (0 Bft) 100,00 %
19.12.2020 21:44 10,4 C 10,0 C 7,7 C 92 % 1015,6 hPa 0,0 l/m 0 min 0 min 0 W/m 3,2 km/h (1 Bft) 100,00 %
19.12.2020 21:46 10,4 C 10,0 C 7,7 C 92 % 1015,6 hPa 0,0 l/m 0 min 0 min 0 W/m 0,0 km/h (0 Bft) 100,00 %
19.12.2020 21:48 10,4 C 10,0 C 7,7 C 92 % 1015,7 hPa 0,0 l/m 0 min 0 min 0 W/m 6,4 km/h (2 Bft) 97,87 %
19.12.2020 21:50 10,4 C 10,0 C 7,7 C 92 % 1015,8 hPa 0,0 l/m 0 min 0 min 0 W/m 0,0 km/h (0 Bft) 100,00 %
19.12.2020 21:52 10,4 C 10,0 C 7,7 C 92 % 1015,7 hPa 0,0 l/m 0 min 0 min 0 W/m 0,0 km/h (0 Bft) 100,00 %
19.12.2020 21:54 10,4 C 10,0 C 7,7 C 92 % 1015,8 hPa 0,0 l/m 0 min 0 min 0 W/m 0,0 km/h (0 Bft) 100,00 %
19.12.2020 21:56 10,3 C 9,4 C 7,7 C 92 % 1015,8 hPa 0,0 l/m 0 min 0 min 0 W/m 0,0 km/h (0 Bft) 100,00 %
19.12.2020 21:58 10,3 C 9,4 C 7,7 C 92 % 1015,8 hPa 0,0 l/m 0 min 0 min 0 W/m 0,0 km/h (0 Bft) 100,00 %
19.12.2020 22:00 10,3 C 9,4 C 7,7 C 92 % 1015,8 hPa 0,0 l/m 0 min 0 min 0 W/m 0,0 km/h (0 Bft) 100,00 %
19.12.2020 22:02 10,3 C 9,4 C 7,7 C 92 % 1015,8 hPa 0,0 l/m 0 min 0 min 0 W/m 0,0 km/h (0 Bft) 100,00 %
19.12.2020 22:04 10,3 C 9,4 C 7,7 C 92 % 1015,8 hPa 0,0 l/m 0 min 0 min 0 W/m 3,2 km/h (1 Bft) 100,00 %
19.12.2020 22:06 10,3 C 9,4 C 7,7 C 92 % 1015,8 hPa 0,0 l/m 0 min 0 min 0 W/m 0,0 km/h (0 Bft) 100,00 %
19.12.2020 22:08 10,3 C 9,4 C 7,7 C 92 % 1015,8 hPa 0,0 l/m 0 min 0 min 0 W/m 0,0 km/h (0 Bft) 97,87 %
19.12.2020 22:10 10,3 C 9,4 C 7,2 C 92 % 1015,8 hPa 0,0 l/m 0 min 0 min 0 W/m 0,0 km/h (0 Bft) 100,00 %
19.12.2020 22:12 10,3 C 9,4 C 7,2 C 92 % 1015,8 hPa 0,0 l/m 0 min 0 min 0 W/m 0,0 km/h (0 Bft) 100,00 %
19.12.2020 22:14 10,3 C 9,4 C 7,2 C 92 % 1015,8 hPa 0,0 l/m 0 min 0 min 0 W/m 0,0 km/h (0 Bft) 100,00 %
19.12.2020 22:16 10,3 C 9,4 C 7,2 C 92 % 1015,8 hPa 0,0 l/m 0 min 0 min 0 W/m 0,0 km/h (0 Bft) 100,00 %
19.12.2020 22:18 10,3 C 9,4 C 7,2 C 92 % 1015,8 hPa 0,0 l/m 0 min 0 min 0 W/m 0,0 km/h (0 Bft) 100,00 %
19.12.2020 22:20 10,2 C 9,4 C 7,2 C 92 % 1015,8 hPa 0,0 l/m 0 min 0 min 0 W/m 0,0 km/h (0 Bft) 100,00 %
19.12.2020 22:22 10,2 C 9,4 C 7,2 C 92 % 1015,8 hPa 0,0 l/m 0 min 0 min 0 W/m 0,0 km/h (0 Bft) 97,87 %
19.12.2020 22:24 10,2 C 9,4 C 7,2 C 92 % 1015,8 hPa 0,0 l/m 0 min 0 min 0 W/m 3,2 km/h (1 Bft) 95,74 %
19.12.2020 22:26 10,2 C 9,4 C 7,2 C 92 % 1015,8 hPa 0,0 l/m 0 min 0 min 0 W/m 0,0 km/h (0 Bft) 93,62 %
19.12.2020 22:28 10,2 C 9,4 C 7,2 C 92 % 1015,8 hPa 0,0 l/m 0 min 0 min 0 W/m 0,0 km/h (0 Bft) 97,87 %
19.12.2020 22:30 10,1 C 9,4 C 7,2 C 92 % 1015,9 hPa 0,0 l/m 0 min 0 min 0 W/m 0,0 km/h (0 Bft) 100,00 %
19.12.2020 22:32 10,1 C 9,4 C 7,2 C 92 % 1015,9 hPa 0,0 l/m 0 min 0 min 0 W/m 0,0 km/h (0 Bft) 97,83 %
19.12.2020 22:34 10,1 C 9,4 C 7,2 C 92 % 1015,9 hPa 0,0 l/m 0 min 0 min 0 W/m 0,0 km/h (0 Bft) 97,87 %
19.12.2020 22:36 10,1 C 9,4 C 7,2 C 92 % 1015,9 hPa 0,0 l/m 0 min 0 min 0 W/m 0,0 km/h (0 Bft) 97,87 %
19.12.2020 22:38 10,1 C 9,4 C 7,2 C 92 % 1015,9 hPa 0,0 l/m 0 min 0 min 0 W/m 0,0 km/h (0 Bft) 97,87 %
19.12.2020 22:40 10,1 C 9,4 C 7,2 C 92 % 1015,9 hPa 0,0 l/m 0 min 0 min 0 W/m 0,0 km/h (0 Bft) 97,14 %
19.12.2020 22:42 10,0 C 9,4 C 7,2 C 92 % 1015,9 hPa 0,0 l/m 0 min 0 min 0 W/m 0,0 km/h (0 Bft) 95,74 %
19.12.2020 22:44 10,0 C 9,4 C 7,2 C 92 % 1015,9 hPa 0,0 l/m 0 min 0 min 0 W/m 0,0 km/h (0 Bft) 97,87 %
19.12.2020 22:46 10,0 C 9,4 C 7,2 C 92 % 1016,0 hPa 0,0 l/m 0 min 0 min 0 W/m 0,0 km/h (0 Bft) 97,83 %
19.12.2020 22:48 10,0 C 9,4 C 7,2 C 92 % 1016,0 hPa 0,0 l/m 0 min 0 min 0 W/m 0,0 km/h (0 Bft) 97,87 %
19.12.2020 22:50 10,0 C 8,9 C 7,2 C 92 % 1016,0 hPa 0,0 l/m 0 min 0 min 0 W/m 0,0 km/h (0 Bft) 95,74 %
19.12.2020 22:52 10,0 C 8,9 C 7,2 C 92 % 1016,0 hPa 0,0 l/m 0 min 0 min 0 W/m 0,0 km/h (0 Bft) 93,62 %
19.12.2020 22:54 9,9 C 8,9 C 7,2 C 92 % 1016,0 hPa 0,0 l/m 0 min 0 min 0 W/m 0,0 km/h (0 Bft) 93,62 %
19.12.2020 22:56 9,9 C 8,9 C 7,2 C 92 % 1016,1 hPa 0,0 l/m 0 min 0 min 0 W/m 0,0 km/h (0 Bft) 95,74 %
19.12.2020 22:58 9,9 C 8,9 C 7,2 C 92 % 1016,1 hPa 0,0 l/m 0 min 0 min 0 W/m 0,0 km/h (0 Bft) 97,96 %
19.12.2020 23:00 9,9 C 9,4 C 7,2 C 92 % 1016,1 hPa 0,0 l/m 0 min 0 min 0 W/m 0,0 km/h (0 Bft) 93,62 %
19.12.2020 23:02 9,9 C 9,4 C 7,2 C 92 % 1016,0 hPa 0,0 l/m 0 min 0 min 0 W/m 0,0 km/h (0 Bft) 93,88 %
19.12.2020 23:04 9,9 C 9,4 C 7,2 C 92 % 1016,1 hPa 0,0 l/m 0 min 0 min 0 W/m 0,0 km/h (0 Bft) 91,49 %
19.12.2020 23:06 9,9 C 9,4 C 7,2 C 92 % 1016,1 hPa 0,0 l/m 0 min 0 min 0 W/m 0,0 km/h (0 Bft) 95,74 %
19.12.2020 23:08 9,8 C 8,9 C 7,2 C 92 % 1016,1 hPa 0,0 l/m 0 min 0 min 0 W/m 0,0 km/h (0 Bft) 97,87 %
19.12.2020 23:10 9,8 C 8,9 C 7,2 C 92 % 1016,1 hPa 0,0 l/m 0 min 0 min 0 W/m 3,2 km/h (1 Bft) 93,75 %
19.12.2020 23:12 9,8 C 8,9 C 7,2 C 92 % 1016,1 hPa 0,0 l/m 0 min 0 min 0 W/m 0,0 km/h (0 Bft) 93,48 %
19.12.2020 23:14 9,8 C 8,9 C 7,2 C 92 % 1016,2 hPa 0,0 l/m 0 min 0 min 0 W/m 0,0 km/h (0 Bft) 91,49 %
19.12.2020 23:16 9,8 C 8,9 C 7,2 C 92 % 1016,2 hPa 0,0 l/m 0 min 0 min 0 W/m 0,0 km/h (0 Bft) 93,62 %
19.12.2020 23:18 9,8 C 8,9 C 7,2 C 92 % 1016,3 hPa 0,0 l/m 0 min 0 min 0 W/m 0,0 km/h (0 Bft) 95,74 %
19.12.2020 23:20 9,8 C 8,9 C 7,2 C 92 % 1016,3 hPa 0,0 l/m 0 min 0 min 0 W/m 0,0 km/h (0 Bft) 93,62 %
19.12.2020 23:22 9,7 C 8,9 C 7,2 C 92 % 1016,3 hPa 0,0 l/m 0 min 0 min 0 W/m 0,0 km/h (0 Bft) 95,74 %
19.12.2020 23:24 9,7 C 8,9 C 7,2 C 92 % 1016,3 hPa 0,0 l/m 0 min 0 min 0 W/m 0,0 km/h (0 Bft) 95,65 %
19.12.2020 23:26 9,7 C 8,9 C 7,2 C 92 % 1016,2 hPa 0,0 l/m 0 min 0 min 0 W/m 0,0 km/h (0 Bft) 95,74 %
19.12.2020 23:28 9,7 C 8,9 C 7,2 C 92 % 1016,3 hPa 0,0 l/m 0 min 0 min 0 W/m 0,0 km/h (0 Bft) 93,62 %
19.12.2020 23:30 9,7 C 8,9 C 7,2 C 92 % 1016,3 hPa 0,0 l/m 0 min 0 min 0 W/m 0,0 km/h (0 Bft) 95,74 %
19.12.2020 23:32 9,7 C 8,9 C 6,6 C 92 % 1016,3 hPa 0,0 l/m 0 min 0 min 0 W/m 0,0 km/h (0 Bft) 93,62 %
19.12.2020 23:34 9,6 C 8,9 C 6,6 C 92 % 1016,3 hPa 0,0 l/m 0 min 0 min 0 W/m 0,0 km/h (0 Bft) 95,74 %
19.12.2020 23:38 9,6 C 8,9 C 6,6 C 92 % 1016,3 hPa 0,0 l/m 0 min 0 min 0 W/m 0,0 km/h (0 Bft) 94,62 %
19.12.2020 23:40 9,6 C 8,9 C 6,6 C 92 % 1016,3 hPa 0,0 l/m 0 min 0 min 0 W/m 0,0 km/h (0 Bft) 95,74 %
19.12.2020 23:42 9,6 C 8,9 C 6,6 C 92 % 1016,3 hPa 0,0 l/m 0 min 0 min 0 W/m 0,0 km/h (0 Bft) 93,62 %
19.12.2020 23:44 9,6 C 8,9 C 6,6 C 92 % 1016,3 hPa 0,0 l/m 0 min 0 min 0 W/m 0,0 km/h (0 Bft) 95,74 %
19.12.2020 23:46 9,6 C 8,9 C 6,6 C 92 % 1016,3 hPa 0,0 l/m 0 min 0 min 0 W/m 0,0 km/h (0 Bft) 95,74 %
19.12.2020 23:48 9,5 C 8,9 C 6,6 C 92 % 1016,3 hPa 0,0 l/m 0 min 0 min 0 W/m 0,0 km/h (0 Bft) 95,65 %
19.12.2020 23:50 9,5 C 8,9 C 6,6 C 92 % 1016,3 hPa 0,0 l/m 0 min 0 min 0 W/m 0,0 km/h (0 Bft) 95,74 %
19.12.2020 23:52 9,5 C 8,9 C 6,6 C 92 % 1016,3 hPa 0,0 l/m 0 min 0 min 0 W/m 0,0 km/h (0 Bft) 95,74 %
19.12.2020 23:54 9,5 C 8,9 C 6,6 C 92 % 1016,3 hPa 0,0 l/m 0 min 0 min 0 W/m 0,0 km/h (0 Bft) 95,74 %
19.12.2020 23:56 9,5 C 8,9 C 6,6 C 92 % 1016,3 hPa 0,0 l/m 0 min 0 min 0 W/m 0,0 km/h (0 Bft) 95,74 %
19.12.2020 23:58 9,5 C 8,9 C 6,6 C 92 % 1016,3 hPa 0,0 l/m 0 min 0 min 0 W/m 0,0 km/h (0 Bft) 97,87 %
_ Min-Zeit 00:30 00:00 00:00 15:28 13:10 - - - - 00:00 05:26
Minimum _ 5,5 C 5,0 C 3,8 C 84 % 1012,8 hPa - - - - 0,0 km/h (0 Bft) 50,00 %
_ Max-Zeit 13:14 13:04 13:04 09:10 00:00 19:20 11:18 18:28 12:48 19:22 00:00
Maximum _ 12,1 C 16,7 C 12,7 C 98 % 1017,5 hPa 0,2 l/m 2 min 2 min 360 W/m 32,2 km/h
S-SO (5 Bft)
100,00 %
Durchschnitt _ 8,6 C 8,4 C 6,5 C 93 % 1014,9 hPa #0,2 l/m #1:40 h #2 min. 80 W/m 3,7 km/h (1 Bft) 97,26 %
© 2020 W. Hausmann